<?xml version="1.0" encoding="UTF-8" standalone="no" ?>
<gpx xmlns="http://www.topografix.com/GPX/1/1" xmlns:xsi="http://www.w3.org/2001/XMLSchema-instance" xsi:schemaLocation="http://www.topografix.com/GPX/1/1 http://www.topografix.com/GPX/1/1/gpx.xsd" version="1.1" creator="VisuGPX - https://www.visugpx.com">
  <metadata>
    <name>[BASE Jump] Sputnik depuis Chasserüg</name>
    <desc><![CDATA[







]]></desc>
  </metadata>
  <trk>
    <name><![CDATA[[BASE Jump] Sputnik depuis Chasserug._1]]></name>
    <desc><![CDATA[





















]]></desc>
    <extensions>
      <line xmlns="http://www.topografix.com/GPX/gpx_style/0/2">
        <color>0000FF</color>
        <width>4</width>
      </line>
    </extensions>
    <trkseg>
      <trkpt lat="47.15489" lon="9.31295">
        <ele>2258.6</ele>
      </trkpt>
      <trkpt lat="47.15485" lon="9.31263">
        <ele>2259.7</ele>
      </trkpt>
      <trkpt lat="47.1548" lon="9.31219">
        <ele>2258.8</ele>
      </trkpt>
      <trkpt lat="47.15461" lon="9.31161">
        <ele>2247.7</ele>
      </trkpt>
      <trkpt lat="47.15445" lon="9.31104">
        <ele>2258.2</ele>
      </trkpt>
      <trkpt lat="47.15442" lon="9.31083">
        <ele>2261.7</ele>
      </trkpt>
      <trkpt lat="47.15438" lon="9.3108">
        <ele>2317.5</ele>
        <time>2024-07-10T07:07:23Z</time>
      </trkpt>
      <trkpt lat="47.15439" lon="9.31081">
        <ele>2317.4</ele>
        <time>2024-07-10T07:07:24Z</time>
      </trkpt>
      <trkpt lat="47.15439" lon="9.31081">
        <ele>2317.5</ele>
        <time>2024-07-10T07:07:27Z</time>
      </trkpt>
      <trkpt lat="47.15439" lon="9.3108">
        <ele>2317.7</ele>
        <time>2024-07-10T07:07:29Z</time>
      </trkpt>
      <trkpt lat="47.15438" lon="9.31079">
        <ele>2318.1</ele>
        <time>2024-07-10T07:07:31Z</time>
      </trkpt>
      <trkpt lat="47.15438" lon="9.31078">
        <ele>2318.2</ele>
        <time>2024-07-10T07:07:32Z</time>
      </trkpt>
      <trkpt lat="47.15437" lon="9.31076">
        <ele>2318.1</ele>
        <time>2024-07-10T07:07:34Z</time>
      </trkpt>
      <trkpt lat="47.15436" lon="9.31074">
        <ele>2317.9</ele>
        <time>2024-07-10T07:07:35Z</time>
      </trkpt>
      <trkpt lat="47.15436" lon="9.31073">
        <ele>2317.6</ele>
        <time>2024-07-10T07:07:37Z</time>
      </trkpt>
      <trkpt lat="47.15436" lon="9.31071">
        <ele>2317.1</ele>
        <time>2024-07-10T07:07:38Z</time>
      </trkpt>
      <trkpt lat="47.15435" lon="9.31069">
        <ele>2317.3</ele>
        <time>2024-07-10T07:07:40Z</time>
      </trkpt>
      <trkpt lat="47.15435" lon="9.31067">
        <ele>2318.2</ele>
        <time>2024-07-10T07:07:42Z</time>
      </trkpt>
      <trkpt lat="47.15436" lon="9.31065">
        <ele>2318.7</ele>
        <time>2024-07-10T07:07:44Z</time>
      </trkpt>
      <trkpt lat="47.15436" lon="9.31063">
        <ele>2318.9</ele>
        <time>2024-07-10T07:07:45Z</time>
      </trkpt>
      <trkpt lat="47.15435" lon="9.31062">
        <ele>2319.2</ele>
        <time>2024-07-10T07:07:46Z</time>
      </trkpt>
      <trkpt lat="47.15434" lon="9.31059">
        <ele>2320.1</ele>
        <time>2024-07-10T07:07:48Z</time>
      </trkpt>
      <trkpt lat="47.15434" lon="9.31058">
        <ele>2320.4</ele>
        <time>2024-07-10T07:07:49Z</time>
      </trkpt>
      <trkpt lat="47.15434" lon="9.31056">
        <ele>2321</ele>
        <time>2024-07-10T07:07:51Z</time>
      </trkpt>
      <trkpt lat="47.15433" lon="9.31054">
        <ele>2321.3</ele>
        <time>2024-07-10T07:07:53Z</time>
      </trkpt>
      <trkpt lat="47.15432" lon="9.31053">
        <ele>2321.4</ele>
        <time>2024-07-10T07:07:55Z</time>
      </trkpt>
      <trkpt lat="47.15432" lon="9.31052">
        <ele>2321.6</ele>
        <time>2024-07-10T07:07:56Z</time>
      </trkpt>
      <trkpt lat="47.15431" lon="9.3105">
        <ele>2321.7</ele>
        <time>2024-07-10T07:07:58Z</time>
      </trkpt>
      <trkpt lat="47.15431" lon="9.31047">
        <ele>2322</ele>
        <time>2024-07-10T07:08:00Z</time>
      </trkpt>
      <trkpt lat="47.15431" lon="9.31045">
        <ele>2322</ele>
        <time>2024-07-10T07:08:01Z</time>
      </trkpt>
      <trkpt lat="47.15431" lon="9.31044">
        <ele>2322.1</ele>
        <time>2024-07-10T07:08:02Z</time>
      </trkpt>
      <trkpt lat="47.15431" lon="9.31042">
        <ele>2322.1</ele>
        <time>2024-07-10T07:08:03Z</time>
      </trkpt>
      <trkpt lat="47.15431" lon="9.31041">
        <ele>2322.1</ele>
        <time>2024-07-10T07:08:04Z</time>
      </trkpt>
      <trkpt lat="47.15432" lon="9.31039">
        <ele>2322</ele>
        <time>2024-07-10T07:08:05Z</time>
      </trkpt>
      <trkpt lat="47.15432" lon="9.31038">
        <ele>2322.3</ele>
        <time>2024-07-10T07:08:07Z</time>
      </trkpt>
      <trkpt lat="47.15432" lon="9.31036">
        <ele>2322.7</ele>
        <time>2024-07-10T07:08:09Z</time>
      </trkpt>
      <trkpt lat="47.15432" lon="9.31034">
        <ele>2323.2</ele>
        <time>2024-07-10T07:08:11Z</time>
      </trkpt>
      <trkpt lat="47.15432" lon="9.31032">
        <ele>2323.7</ele>
        <time>2024-07-10T07:08:13Z</time>
      </trkpt>
      <trkpt lat="47.15432" lon="9.31031">
        <ele>2323.8</ele>
        <time>2024-07-10T07:08:15Z</time>
      </trkpt>
      <trkpt lat="47.15432" lon="9.31029">
        <ele>2324.2</ele>
        <time>2024-07-10T07:08:17Z</time>
      </trkpt>
      <trkpt lat="47.15433" lon="9.31027">
        <ele>2324.6</ele>
        <time>2024-07-10T07:08:19Z</time>
      </trkpt>
      <trkpt lat="47.15433" lon="9.31026">
        <ele>2324.7</ele>
        <time>2024-07-10T07:08:21Z</time>
      </trkpt>
      <trkpt lat="47.15433" lon="9.31024">
        <ele>2324.9</ele>
        <time>2024-07-10T07:08:22Z</time>
      </trkpt>
      <trkpt lat="47.15434" lon="9.31023">
        <ele>2324.9</ele>
        <time>2024-07-10T07:08:24Z</time>
      </trkpt>
      <trkpt lat="47.15434" lon="9.31021">
        <ele>2324.9</ele>
        <time>2024-07-10T07:08:25Z</time>
      </trkpt>
      <trkpt lat="47.15434" lon="9.3102">
        <ele>2325.1</ele>
        <time>2024-07-10T07:08:26Z</time>
      </trkpt>
      <trkpt lat="47.15435" lon="9.31017">
        <ele>2325.4</ele>
        <time>2024-07-10T07:08:28Z</time>
      </trkpt>
      <trkpt lat="47.15435" lon="9.31016">
        <ele>2325.5</ele>
        <time>2024-07-10T07:08:29Z</time>
      </trkpt>
      <trkpt lat="47.15434" lon="9.31014">
        <ele>2325.6</ele>
        <time>2024-07-10T07:08:30Z</time>
      </trkpt>
      <trkpt lat="47.15434" lon="9.31013">
        <ele>2325.9</ele>
        <time>2024-07-10T07:08:31Z</time>
      </trkpt>
      <trkpt lat="47.15434" lon="9.3101">
        <ele>2326.2</ele>
        <time>2024-07-10T07:08:33Z</time>
      </trkpt>
      <trkpt lat="47.15435" lon="9.31008">
        <ele>2326.6</ele>
        <time>2024-07-10T07:08:35Z</time>
      </trkpt>
      <trkpt lat="47.15435" lon="9.31007">
        <ele>2327.1</ele>
        <time>2024-07-10T07:08:37Z</time>
      </trkpt>
      <trkpt lat="47.15435" lon="9.31004">
        <ele>2327.4</ele>
        <time>2024-07-10T07:08:39Z</time>
      </trkpt>
      <trkpt lat="47.15435" lon="9.31003">
        <ele>2327.7</ele>
        <time>2024-07-10T07:08:40Z</time>
      </trkpt>
      <trkpt lat="47.15435" lon="9.31001">
        <ele>2328.1</ele>
        <time>2024-07-10T07:08:42Z</time>
      </trkpt>
      <trkpt lat="47.15435" lon="9.30999">
        <ele>2328.6</ele>
        <time>2024-07-10T07:08:44Z</time>
      </trkpt>
      <trkpt lat="47.15435" lon="9.30997">
        <ele>2328.7</ele>
        <time>2024-07-10T07:08:45Z</time>
      </trkpt>
      <trkpt lat="47.15436" lon="9.30996">
        <ele>2328.9</ele>
        <time>2024-07-10T07:08:46Z</time>
      </trkpt>
      <trkpt lat="47.15435" lon="9.30994">
        <ele>2328.9</ele>
        <time>2024-07-10T07:08:47Z</time>
      </trkpt>
      <trkpt lat="47.15435" lon="9.30992">
        <ele>2328.7</ele>
        <time>2024-07-10T07:08:48Z</time>
      </trkpt>
      <trkpt lat="47.15435" lon="9.30991">
        <ele>2328.6</ele>
        <time>2024-07-10T07:08:49Z</time>
      </trkpt>
      <trkpt lat="47.15435" lon="9.30988">
        <ele>2328.4</ele>
        <time>2024-07-10T07:08:51Z</time>
      </trkpt>
      <trkpt lat="47.15434" lon="9.30985">
        <ele>2328.4</ele>
        <time>2024-07-10T07:08:53Z</time>
      </trkpt>
      <trkpt lat="47.15434" lon="9.30983">
        <ele>2328.3</ele>
        <time>2024-07-10T07:08:54Z</time>
      </trkpt>
      <trkpt lat="47.15434" lon="9.30982">
        <ele>2328.2</ele>
        <time>2024-07-10T07:08:55Z</time>
      </trkpt>
      <trkpt lat="47.15434" lon="9.3098">
        <ele>2328.2</ele>
        <time>2024-07-10T07:08:56Z</time>
      </trkpt>
      <trkpt lat="47.15434" lon="9.30979">
        <ele>2328.4</ele>
        <time>2024-07-10T07:08:57Z</time>
      </trkpt>
      <trkpt lat="47.15435" lon="9.30977">
        <ele>2328.9</ele>
        <time>2024-07-10T07:08:58Z</time>
      </trkpt>
      <trkpt lat="47.15435" lon="9.30974">
        <ele>2329.5</ele>
        <time>2024-07-10T07:09:00Z</time>
      </trkpt>
      <trkpt lat="47.15435" lon="9.30972">
        <ele>2330.2</ele>
        <time>2024-07-10T07:09:02Z</time>
      </trkpt>
      <trkpt lat="47.15434" lon="9.30971">
        <ele>2330.8</ele>
        <time>2024-07-10T07:09:04Z</time>
      </trkpt>
      <trkpt lat="47.15433" lon="9.3097">
        <ele>2331.2</ele>
        <time>2024-07-10T07:09:06Z</time>
      </trkpt>
      <trkpt lat="47.15433" lon="9.30968">
        <ele>2332</ele>
        <time>2024-07-10T07:09:08Z</time>
      </trkpt>
      <trkpt lat="47.15432" lon="9.30966">
        <ele>2332.6</ele>
        <time>2024-07-10T07:09:10Z</time>
      </trkpt>
      <trkpt lat="47.15432" lon="9.30964">
        <ele>2333.7</ele>
        <time>2024-07-10T07:09:15Z</time>
      </trkpt>
      <trkpt lat="47.15432" lon="9.30962">
        <ele>2334.1</ele>
        <time>2024-07-10T07:09:16Z</time>
      </trkpt>
      <trkpt lat="47.15433" lon="9.3096">
        <ele>2334.1</ele>
        <time>2024-07-10T07:09:18Z</time>
      </trkpt>
      <trkpt lat="47.15433" lon="9.30958">
        <ele>2334.4</ele>
        <time>2024-07-10T07:09:19Z</time>
      </trkpt>
      <trkpt lat="47.15432" lon="9.30957">
        <ele>2334.8</ele>
        <time>2024-07-10T07:09:20Z</time>
      </trkpt>
      <trkpt lat="47.15432" lon="9.30955">
        <ele>2335.1</ele>
        <time>2024-07-10T07:09:21Z</time>
      </trkpt>
      <trkpt lat="47.15431" lon="9.30953">
        <ele>2335.6</ele>
        <time>2024-07-10T07:09:23Z</time>
      </trkpt>
      <trkpt lat="47.15432" lon="9.30952">
        <ele>2335.4</ele>
        <time>2024-07-10T07:09:25Z</time>
      </trkpt>
      <trkpt lat="47.15432" lon="9.3095">
        <ele>2335</ele>
        <time>2024-07-10T07:09:26Z</time>
      </trkpt>
      <trkpt lat="47.15433" lon="9.30948">
        <ele>2334.9</ele>
        <time>2024-07-10T07:09:28Z</time>
      </trkpt>
      <trkpt lat="47.15433" lon="9.30947">
        <ele>2335.1</ele>
        <time>2024-07-10T07:09:30Z</time>
      </trkpt>
      <trkpt lat="47.15433" lon="9.30946">
        <ele>2334.5</ele>
        <time>2024-07-10T07:09:32Z</time>
      </trkpt>
      <trkpt lat="47.15433" lon="9.30944">
        <ele>2334.2</ele>
        <time>2024-07-10T07:09:34Z</time>
      </trkpt>
      <trkpt lat="47.15433" lon="9.30943">
        <ele>2334.1</ele>
        <time>2024-07-10T07:09:35Z</time>
      </trkpt>
      <trkpt lat="47.15434" lon="9.30941">
        <ele>2334.3</ele>
        <time>2024-07-10T07:09:36Z</time>
      </trkpt>
      <trkpt lat="47.15434" lon="9.3094">
        <ele>2334.3</ele>
        <time>2024-07-10T07:09:37Z</time>
      </trkpt>
      <trkpt lat="47.15434" lon="9.30938">
        <ele>2334.6</ele>
        <time>2024-07-10T07:09:38Z</time>
      </trkpt>
      <trkpt lat="47.15433" lon="9.30937">
        <ele>2335</ele>
        <time>2024-07-10T07:09:39Z</time>
      </trkpt>
      <trkpt lat="47.15433" lon="9.30935">
        <ele>2335.4</ele>
        <time>2024-07-10T07:09:40Z</time>
      </trkpt>
      <trkpt lat="47.15433" lon="9.30934">
        <ele>2335.5</ele>
        <time>2024-07-10T07:09:41Z</time>
      </trkpt>
      <trkpt lat="47.15434" lon="9.30931">
        <ele>2335.6</ele>
        <time>2024-07-10T07:09:43Z</time>
      </trkpt>
      <trkpt lat="47.15434" lon="9.3093">
        <ele>2335.9</ele>
        <time>2024-07-10T07:09:44Z</time>
      </trkpt>
      <trkpt lat="47.15434" lon="9.30928">
        <ele>2335.9</ele>
        <time>2024-07-10T07:09:45Z</time>
      </trkpt>
      <trkpt lat="47.15435" lon="9.30926">
        <ele>2336</ele>
        <time>2024-07-10T07:09:46Z</time>
      </trkpt>
      <trkpt lat="47.15434" lon="9.30925">
        <ele>2336.1</ele>
        <time>2024-07-10T07:09:47Z</time>
      </trkpt>
      <trkpt lat="47.15434" lon="9.30923">
        <ele>2336.3</ele>
        <time>2024-07-10T07:09:49Z</time>
      </trkpt>
      <trkpt lat="47.15433" lon="9.30922">
        <ele>2336.2</ele>
        <time>2024-07-10T07:09:50Z</time>
      </trkpt>
      <trkpt lat="47.15432" lon="9.30921">
        <ele>2335.9</ele>
        <time>2024-07-10T07:09:52Z</time>
      </trkpt>
      <trkpt lat="47.15432" lon="9.30919">
        <ele>2335.7</ele>
        <time>2024-07-10T07:09:54Z</time>
      </trkpt>
      <trkpt lat="47.15432" lon="9.30917">
        <ele>2335.7</ele>
        <time>2024-07-10T07:09:56Z</time>
      </trkpt>
      <trkpt lat="47.15433" lon="9.30916">
        <ele>2335.3</ele>
        <time>2024-07-10T07:09:58Z</time>
      </trkpt>
      <trkpt lat="47.15435" lon="9.30914">
        <ele>2335</ele>
        <time>2024-07-10T07:10:00Z</time>
      </trkpt>
      <trkpt lat="47.15435" lon="9.30913">
        <ele>2334.9</ele>
        <time>2024-07-10T07:10:01Z</time>
      </trkpt>
      <trkpt lat="47.15436" lon="9.30911">
        <ele>2334.7</ele>
        <time>2024-07-10T07:10:03Z</time>
      </trkpt>
      <trkpt lat="47.15437" lon="9.3091">
        <ele>2334.5</ele>
        <time>2024-07-10T07:10:05Z</time>
      </trkpt>
      <trkpt lat="47.15437" lon="9.30908">
        <ele>2334.5</ele>
        <time>2024-07-10T07:10:07Z</time>
      </trkpt>
      <trkpt lat="47.15437" lon="9.30906">
        <ele>2334.8</ele>
        <time>2024-07-10T07:10:09Z</time>
      </trkpt>
      <trkpt lat="47.15437" lon="9.30903">
        <ele>2335.1</ele>
        <time>2024-07-10T07:10:11Z</time>
      </trkpt>
      <trkpt lat="47.15437" lon="9.30902">
        <ele>2335.6</ele>
        <time>2024-07-10T07:10:12Z</time>
      </trkpt>
      <trkpt lat="47.15437" lon="9.309">
        <ele>2336.1</ele>
        <time>2024-07-10T07:10:14Z</time>
      </trkpt>
      <trkpt lat="47.15437" lon="9.30898">
        <ele>2336.6</ele>
        <time>2024-07-10T07:10:16Z</time>
      </trkpt>
      <trkpt lat="47.15438" lon="9.30896">
        <ele>2337.3</ele>
        <time>2024-07-10T07:10:18Z</time>
      </trkpt>
      <trkpt lat="47.15439" lon="9.30895">
        <ele>2338.1</ele>
        <time>2024-07-10T07:10:19Z</time>
      </trkpt>
      <trkpt lat="47.1544" lon="9.30894">
        <ele>2339.5</ele>
        <time>2024-07-10T07:10:21Z</time>
      </trkpt>
      <trkpt lat="47.1544" lon="9.30892">
        <ele>2340.8</ele>
        <time>2024-07-10T07:10:23Z</time>
      </trkpt>
      <trkpt lat="47.1544" lon="9.3089">
        <ele>2341.8</ele>
        <time>2024-07-10T07:10:25Z</time>
      </trkpt>
      <trkpt lat="47.1544" lon="9.30888">
        <ele>2342.1</ele>
        <time>2024-07-10T07:10:27Z</time>
      </trkpt>
      <trkpt lat="47.1544" lon="9.30886">
        <ele>2342.4</ele>
        <time>2024-07-10T07:10:29Z</time>
      </trkpt>
      <trkpt lat="47.1544" lon="9.30883">
        <ele>2342.6</ele>
        <time>2024-07-10T07:10:31Z</time>
      </trkpt>
      <trkpt lat="47.15441" lon="9.30882">
        <ele>2342.8</ele>
        <time>2024-07-10T07:10:32Z</time>
      </trkpt>
      <trkpt lat="47.15441" lon="9.3088">
        <ele>2343.1</ele>
        <time>2024-07-10T07:10:33Z</time>
      </trkpt>
      <trkpt lat="47.15446" lon="9.30813">
        <ele>2348.9</ele>
        <time>2024-07-10T07:11:54Z</time>
      </trkpt>
      <trkpt lat="47.15447" lon="9.30811">
        <ele>2348.8</ele>
        <time>2024-07-10T07:11:55Z</time>
      </trkpt>
      <trkpt lat="47.15447" lon="9.3081">
        <ele>2348.5</ele>
        <time>2024-07-10T07:11:56Z</time>
      </trkpt>
      <trkpt lat="47.15448" lon="9.30808">
        <ele>2348</ele>
        <time>2024-07-10T07:11:57Z</time>
      </trkpt>
      <trkpt lat="47.15448" lon="9.30807">
        <ele>2347.6</ele>
        <time>2024-07-10T07:11:58Z</time>
      </trkpt>
      <trkpt lat="47.15448" lon="9.30805">
        <ele>2347.8</ele>
        <time>2024-07-10T07:11:59Z</time>
      </trkpt>
      <trkpt lat="47.15448" lon="9.30803">
        <ele>2347.9</ele>
        <time>2024-07-10T07:12:00Z</time>
      </trkpt>
      <trkpt lat="47.15448" lon="9.30801">
        <ele>2346.9</ele>
        <time>2024-07-10T07:12:02Z</time>
      </trkpt>
      <trkpt lat="47.15448" lon="9.30799">
        <ele>2346.5</ele>
        <time>2024-07-10T07:12:03Z</time>
      </trkpt>
      <trkpt lat="47.15448" lon="9.30797">
        <ele>2346.2</ele>
        <time>2024-07-10T07:12:04Z</time>
      </trkpt>
      <trkpt lat="47.15448" lon="9.30795">
        <ele>2345.9</ele>
        <time>2024-07-10T07:12:05Z</time>
      </trkpt>
      <trkpt lat="47.15447" lon="9.30793">
        <ele>2345.9</ele>
        <time>2024-07-10T07:12:06Z</time>
      </trkpt>
      <trkpt lat="47.15447" lon="9.30792">
        <ele>2346.1</ele>
        <time>2024-07-10T07:12:07Z</time>
      </trkpt>
      <trkpt lat="47.15447" lon="9.3079">
        <ele>2346</ele>
        <time>2024-07-10T07:12:08Z</time>
      </trkpt>
      <trkpt lat="47.15447" lon="9.30788">
        <ele>2346.3</ele>
        <time>2024-07-10T07:12:09Z</time>
      </trkpt>
      <trkpt lat="47.15446" lon="9.30787">
        <ele>2346.7</ele>
        <time>2024-07-10T07:12:10Z</time>
      </trkpt>
      <trkpt lat="47.15446" lon="9.30785">
        <ele>2346.9</ele>
        <time>2024-07-10T07:12:11Z</time>
      </trkpt>
      <trkpt lat="47.15446" lon="9.30783">
        <ele>2347</ele>
        <time>2024-07-10T07:12:12Z</time>
      </trkpt>
      <trkpt lat="47.15446" lon="9.30782">
        <ele>2347.3</ele>
        <time>2024-07-10T07:12:13Z</time>
      </trkpt>
      <trkpt lat="47.15446" lon="9.3078">
        <ele>2347</ele>
        <time>2024-07-10T07:12:14Z</time>
      </trkpt>
      <trkpt lat="47.15446" lon="9.30778">
        <ele>2347.4</ele>
        <time>2024-07-10T07:12:16Z</time>
      </trkpt>
      <trkpt lat="47.15446" lon="9.30776">
        <ele>2347.8</ele>
        <time>2024-07-10T07:12:17Z</time>
      </trkpt>
      <trkpt lat="47.15446" lon="9.30774">
        <ele>2348.2</ele>
        <time>2024-07-10T07:12:18Z</time>
      </trkpt>
      <trkpt lat="47.15446" lon="9.30773">
        <ele>2348.2</ele>
        <time>2024-07-10T07:12:19Z</time>
      </trkpt>
      <trkpt lat="47.15446" lon="9.30769">
        <ele>2348.3</ele>
        <time>2024-07-10T07:12:21Z</time>
      </trkpt>
      <trkpt lat="47.15446" lon="9.30765">
        <ele>2348.3</ele>
        <time>2024-07-10T07:12:23Z</time>
      </trkpt>
      <trkpt lat="47.15446" lon="9.30763">
        <ele>2348.3</ele>
        <time>2024-07-10T07:12:24Z</time>
      </trkpt>
      <trkpt lat="47.15446" lon="9.30759">
        <ele>2348.7</ele>
        <time>2024-07-10T07:12:26Z</time>
      </trkpt>
      <trkpt lat="47.15446" lon="9.30756">
        <ele>2349.3</ele>
        <time>2024-07-10T07:12:28Z</time>
      </trkpt>
      <trkpt lat="47.15446" lon="9.30753">
        <ele>2349.3</ele>
        <time>2024-07-10T07:12:30Z</time>
      </trkpt>
      <trkpt lat="47.15446" lon="9.30752">
        <ele>2349.2</ele>
        <time>2024-07-10T07:12:31Z</time>
      </trkpt>
      <trkpt lat="47.15446" lon="9.3075">
        <ele>2349.7</ele>
        <time>2024-07-10T07:12:32Z</time>
      </trkpt>
      <trkpt lat="47.15446" lon="9.30748">
        <ele>2350</ele>
        <time>2024-07-10T07:12:34Z</time>
      </trkpt>
      <trkpt lat="47.15446" lon="9.30746">
        <ele>2350.4</ele>
        <time>2024-07-10T07:12:35Z</time>
      </trkpt>
      <trkpt lat="47.15446" lon="9.30745">
        <ele>2350.4</ele>
        <time>2024-07-10T07:12:36Z</time>
      </trkpt>
      <trkpt lat="47.15446" lon="9.30743">
        <ele>2350.4</ele>
        <time>2024-07-10T07:12:37Z</time>
      </trkpt>
      <trkpt lat="47.15446" lon="9.30742">
        <ele>2350.6</ele>
        <time>2024-07-10T07:12:38Z</time>
      </trkpt>
      <trkpt lat="47.15446" lon="9.30739">
        <ele>2350.7</ele>
        <time>2024-07-10T07:12:40Z</time>
      </trkpt>
      <trkpt lat="47.15446" lon="9.30737">
        <ele>2350.8</ele>
        <time>2024-07-10T07:12:41Z</time>
      </trkpt>
      <trkpt lat="47.15446" lon="9.30736">
        <ele>2350.9</ele>
        <time>2024-07-10T07:12:42Z</time>
      </trkpt>
      <trkpt lat="47.15446" lon="9.30734">
        <ele>2350.5</ele>
        <time>2024-07-10T07:12:43Z</time>
      </trkpt>
      <trkpt lat="47.15447" lon="9.30732">
        <ele>2350.1</ele>
        <time>2024-07-10T07:12:44Z</time>
      </trkpt>
      <trkpt lat="47.15447" lon="9.30731">
        <ele>2349.5</ele>
        <time>2024-07-10T07:12:45Z</time>
      </trkpt>
      <trkpt lat="47.15447" lon="9.30729">
        <ele>2348.9</ele>
        <time>2024-07-10T07:12:46Z</time>
      </trkpt>
      <trkpt lat="47.15448" lon="9.30728">
        <ele>2348.9</ele>
        <time>2024-07-10T07:12:47Z</time>
      </trkpt>
      <trkpt lat="47.15448" lon="9.30726">
        <ele>2348.8</ele>
        <time>2024-07-10T07:12:48Z</time>
      </trkpt>
      <trkpt lat="47.15449" lon="9.30725">
        <ele>2348.8</ele>
        <time>2024-07-10T07:12:49Z</time>
      </trkpt>
      <trkpt lat="47.15449" lon="9.30723">
        <ele>2348.7</ele>
        <time>2024-07-10T07:12:50Z</time>
      </trkpt>
      <trkpt lat="47.1545" lon="9.30722">
        <ele>2348.8</ele>
        <time>2024-07-10T07:12:51Z</time>
      </trkpt>
      <trkpt lat="47.1545" lon="9.3072">
        <ele>2348.8</ele>
        <time>2024-07-10T07:12:52Z</time>
      </trkpt>
      <trkpt lat="47.15451" lon="9.30719">
        <ele>2348.5</ele>
        <time>2024-07-10T07:12:53Z</time>
      </trkpt>
      <trkpt lat="47.15452" lon="9.30717">
        <ele>2348.6</ele>
        <time>2024-07-10T07:12:54Z</time>
      </trkpt>
      <trkpt lat="47.15452" lon="9.30716">
        <ele>2348.6</ele>
        <time>2024-07-10T07:12:55Z</time>
      </trkpt>
      <trkpt lat="47.15452" lon="9.30714">
        <ele>2349</ele>
        <time>2024-07-10T07:12:56Z</time>
      </trkpt>
      <trkpt lat="47.15453" lon="9.30713">
        <ele>2349.4</ele>
        <time>2024-07-10T07:12:57Z</time>
      </trkpt>
      <trkpt lat="47.15453" lon="9.30711">
        <ele>2349.4</ele>
        <time>2024-07-10T07:12:58Z</time>
      </trkpt>
      <trkpt lat="47.15454" lon="9.3071">
        <ele>2349.3</ele>
        <time>2024-07-10T07:12:59Z</time>
      </trkpt>
      <trkpt lat="47.15454" lon="9.30708">
        <ele>2349.2</ele>
        <time>2024-07-10T07:13:00Z</time>
      </trkpt>
      <trkpt lat="47.15454" lon="9.30706">
        <ele>2349.1</ele>
        <time>2024-07-10T07:13:01Z</time>
      </trkpt>
      <trkpt lat="47.15455" lon="9.30704">
        <ele>2349.4</ele>
        <time>2024-07-10T07:13:02Z</time>
      </trkpt>
      <trkpt lat="47.15455" lon="9.30703">
        <ele>2349.6</ele>
        <time>2024-07-10T07:13:03Z</time>
      </trkpt>
      <trkpt lat="47.15455" lon="9.30701">
        <ele>2349.7</ele>
        <time>2024-07-10T07:13:04Z</time>
      </trkpt>
      <trkpt lat="47.15455" lon="9.30699">
        <ele>2349.6</ele>
        <time>2024-07-10T07:13:05Z</time>
      </trkpt>
      <trkpt lat="47.15456" lon="9.30696">
        <ele>2349.4</ele>
        <time>2024-07-10T07:13:07Z</time>
      </trkpt>
      <trkpt lat="47.15456" lon="9.30695">
        <ele>2349.6</ele>
        <time>2024-07-10T07:13:08Z</time>
      </trkpt>
      <trkpt lat="47.15456" lon="9.30693">
        <ele>2349.9</ele>
        <time>2024-07-10T07:13:09Z</time>
      </trkpt>
      <trkpt lat="47.15455" lon="9.3069">
        <ele>2349.5</ele>
        <time>2024-07-10T07:13:11Z</time>
      </trkpt>
      <trkpt lat="47.15455" lon="9.30688">
        <ele>2349.4</ele>
        <time>2024-07-10T07:13:12Z</time>
      </trkpt>
      <trkpt lat="47.15455" lon="9.30687">
        <ele>2349.3</ele>
        <time>2024-07-10T07:13:13Z</time>
      </trkpt>
      <trkpt lat="47.15455" lon="9.30685">
        <ele>2349.1</ele>
        <time>2024-07-10T07:13:14Z</time>
      </trkpt>
      <trkpt lat="47.15454" lon="9.30684">
        <ele>2349.1</ele>
        <time>2024-07-10T07:13:15Z</time>
      </trkpt>
      <trkpt lat="47.15453" lon="9.30682">
        <ele>2349.1</ele>
        <time>2024-07-10T07:13:16Z</time>
      </trkpt>
      <trkpt lat="47.15453" lon="9.30681">
        <ele>2349.1</ele>
        <time>2024-07-10T07:13:17Z</time>
      </trkpt>
      <trkpt lat="47.15452" lon="9.30679">
        <ele>2349.1</ele>
        <time>2024-07-10T07:13:18Z</time>
      </trkpt>
      <trkpt lat="47.15451" lon="9.30678">
        <ele>2349</ele>
        <time>2024-07-10T07:13:19Z</time>
      </trkpt>
      <trkpt lat="47.15451" lon="9.30677">
        <ele>2349</ele>
        <time>2024-07-10T07:13:20Z</time>
      </trkpt>
      <trkpt lat="47.1545" lon="9.30675">
        <ele>2349.9</ele>
        <time>2024-07-10T07:13:22Z</time>
      </trkpt>
      <trkpt lat="47.15448" lon="9.30672">
        <ele>2350</ele>
        <time>2024-07-10T07:13:24Z</time>
      </trkpt>
      <trkpt lat="47.15448" lon="9.30671">
        <ele>2350.1</ele>
        <time>2024-07-10T07:13:25Z</time>
      </trkpt>
      <trkpt lat="47.15445" lon="9.30668">
        <ele>2350.5</ele>
        <time>2024-07-10T07:13:28Z</time>
      </trkpt>
      <trkpt lat="47.15444" lon="9.30668">
        <ele>2350</ele>
        <time>2024-07-10T07:13:29Z</time>
      </trkpt>
      <trkpt lat="47.15443" lon="9.30667">
        <ele>2349.9</ele>
        <time>2024-07-10T07:13:30Z</time>
      </trkpt>
      <trkpt lat="47.15443" lon="9.30664">
        <ele>2349.7</ele>
        <time>2024-07-10T07:13:32Z</time>
      </trkpt>
      <trkpt lat="47.15442" lon="9.30663">
        <ele>2349.9</ele>
        <time>2024-07-10T07:13:34Z</time>
      </trkpt>
      <trkpt lat="47.15442" lon="9.30661">
        <ele>2350</ele>
        <time>2024-07-10T07:13:35Z</time>
      </trkpt>
      <trkpt lat="47.15441" lon="9.30659">
        <ele>2350.5</ele>
        <time>2024-07-10T07:13:37Z</time>
      </trkpt>
      <trkpt lat="47.15441" lon="9.30657">
        <ele>2351.2</ele>
        <time>2024-07-10T07:13:38Z</time>
      </trkpt>
      <trkpt lat="47.1544" lon="9.30654">
        <ele>2351.5</ele>
        <time>2024-07-10T07:13:40Z</time>
      </trkpt>
      <trkpt lat="47.15439" lon="9.30652">
        <ele>2352.1</ele>
        <time>2024-07-10T07:13:41Z</time>
      </trkpt>
      <trkpt lat="47.15439" lon="9.30651">
        <ele>2352</ele>
        <time>2024-07-10T07:13:42Z</time>
      </trkpt>
      <trkpt lat="47.15438" lon="9.30649">
        <ele>2352</ele>
        <time>2024-07-10T07:13:43Z</time>
      </trkpt>
      <trkpt lat="47.15437" lon="9.30648">
        <ele>2352.1</ele>
        <time>2024-07-10T07:13:44Z</time>
      </trkpt>
      <trkpt lat="47.15436" lon="9.30646">
        <ele>2352.2</ele>
        <time>2024-07-10T07:13:45Z</time>
      </trkpt>
      <trkpt lat="47.15435" lon="9.30644">
        <ele>2352.7</ele>
        <time>2024-07-10T07:13:47Z</time>
      </trkpt>
      <trkpt lat="47.15435" lon="9.30642">
        <ele>2353.1</ele>
        <time>2024-07-10T07:13:48Z</time>
      </trkpt>
      <trkpt lat="47.15433" lon="9.3064">
        <ele>2354.3</ele>
        <time>2024-07-10T07:13:50Z</time>
      </trkpt>
      <trkpt lat="47.15432" lon="9.30638">
        <ele>2353.3</ele>
        <time>2024-07-10T07:13:52Z</time>
      </trkpt>
      <trkpt lat="47.15431" lon="9.30637">
        <ele>2353.4</ele>
        <time>2024-07-10T07:13:53Z</time>
      </trkpt>
      <trkpt lat="47.15431" lon="9.30635">
        <ele>2353.2</ele>
        <time>2024-07-10T07:13:54Z</time>
      </trkpt>
      <trkpt lat="47.1543" lon="9.30634">
        <ele>2353.3</ele>
        <time>2024-07-10T07:13:55Z</time>
      </trkpt>
      <trkpt lat="47.15429" lon="9.30632">
        <ele>2353.2</ele>
        <time>2024-07-10T07:13:56Z</time>
      </trkpt>
      <trkpt lat="47.15429" lon="9.30631">
        <ele>2353.2</ele>
        <time>2024-07-10T07:13:57Z</time>
      </trkpt>
      <trkpt lat="47.15427" lon="9.3063">
        <ele>2353.1</ele>
        <time>2024-07-10T07:13:58Z</time>
      </trkpt>
      <trkpt lat="47.15426" lon="9.3063">
        <ele>2353.6</ele>
        <time>2024-07-10T07:13:59Z</time>
      </trkpt>
      <trkpt lat="47.15425" lon="9.30629">
        <ele>2353.4</ele>
        <time>2024-07-10T07:14:01Z</time>
      </trkpt>
      <trkpt lat="47.15424" lon="9.30627">
        <ele>2353.4</ele>
        <time>2024-07-10T07:14:03Z</time>
      </trkpt>
      <trkpt lat="47.15423" lon="9.30625">
        <ele>2353.6</ele>
        <time>2024-07-10T07:14:04Z</time>
      </trkpt>
      <trkpt lat="47.15422" lon="9.30624">
        <ele>2353.8</ele>
        <time>2024-07-10T07:14:05Z</time>
      </trkpt>
      <trkpt lat="47.15421" lon="9.30624">
        <ele>2353.8</ele>
        <time>2024-07-10T07:14:06Z</time>
      </trkpt>
      <trkpt lat="47.1542" lon="9.30623">
        <ele>2353.6</ele>
        <time>2024-07-10T07:14:07Z</time>
      </trkpt>
      <trkpt lat="47.15419" lon="9.30622">
        <ele>2353.5</ele>
        <time>2024-07-10T07:14:09Z</time>
      </trkpt>
      <trkpt lat="47.15417" lon="9.30622">
        <ele>2354.1</ele>
        <time>2024-07-10T07:14:11Z</time>
      </trkpt>
      <trkpt lat="47.15417" lon="9.3062">
        <ele>2353.7</ele>
        <time>2024-07-10T07:14:13Z</time>
      </trkpt>
      <trkpt lat="47.15416" lon="9.30619">
        <ele>2353.5</ele>
        <time>2024-07-10T07:14:14Z</time>
      </trkpt>
      <trkpt lat="47.15415" lon="9.30618">
        <ele>2353.6</ele>
        <time>2024-07-10T07:14:15Z</time>
      </trkpt>
      <trkpt lat="47.15415" lon="9.30617">
        <ele>2353.1</ele>
        <time>2024-07-10T07:14:16Z</time>
      </trkpt>
      <trkpt lat="47.15414" lon="9.30616">
        <ele>2353</ele>
        <time>2024-07-10T07:14:17Z</time>
      </trkpt>
      <trkpt lat="47.15412" lon="9.30615">
        <ele>2354.2</ele>
        <time>2024-07-10T07:14:19Z</time>
      </trkpt>
      <trkpt lat="47.15411" lon="9.30614">
        <ele>2354.7</ele>
        <time>2024-07-10T07:14:20Z</time>
      </trkpt>
      <trkpt lat="47.1541" lon="9.30613">
        <ele>2354.6</ele>
        <time>2024-07-10T07:14:22Z</time>
      </trkpt>
      <trkpt lat="47.15409" lon="9.30611">
        <ele>2354.8</ele>
        <time>2024-07-10T07:14:23Z</time>
      </trkpt>
      <trkpt lat="47.15408" lon="9.3061">
        <ele>2355</ele>
        <time>2024-07-10T07:14:24Z</time>
      </trkpt>
      <trkpt lat="47.15408" lon="9.30609">
        <ele>2355.2</ele>
        <time>2024-07-10T07:14:25Z</time>
      </trkpt>
      <trkpt lat="47.15408" lon="9.30607">
        <ele>2355.2</ele>
        <time>2024-07-10T07:14:26Z</time>
      </trkpt>
      <trkpt lat="47.15407" lon="9.30606">
        <ele>2355.7</ele>
        <time>2024-07-10T07:14:27Z</time>
      </trkpt>
      <trkpt lat="47.15405" lon="9.30604">
        <ele>2355.8</ele>
        <time>2024-07-10T07:14:29Z</time>
      </trkpt>
      <trkpt lat="47.15404" lon="9.30602">
        <ele>2355.7</ele>
        <time>2024-07-10T07:14:30Z</time>
      </trkpt>
      <trkpt lat="47.15403" lon="9.30601">
        <ele>2356</ele>
        <time>2024-07-10T07:14:31Z</time>
      </trkpt>
      <trkpt lat="47.15402" lon="9.306">
        <ele>2356.1</ele>
        <time>2024-07-10T07:14:32Z</time>
      </trkpt>
      <trkpt lat="47.15402" lon="9.30599">
        <ele>2356.1</ele>
        <time>2024-07-10T07:14:33Z</time>
      </trkpt>
      <trkpt lat="47.15401" lon="9.30597">
        <ele>2356.2</ele>
        <time>2024-07-10T07:14:34Z</time>
      </trkpt>
      <trkpt lat="47.154" lon="9.30595">
        <ele>2356.3</ele>
        <time>2024-07-10T07:14:35Z</time>
      </trkpt>
      <trkpt lat="47.15399" lon="9.30594">
        <ele>2356.9</ele>
        <time>2024-07-10T07:14:36Z</time>
      </trkpt>
      <trkpt lat="47.15398" lon="9.30592">
        <ele>2357.3</ele>
        <time>2024-07-10T07:14:38Z</time>
      </trkpt>
      <trkpt lat="47.15398" lon="9.30591">
        <ele>2357.1</ele>
        <time>2024-07-10T07:14:39Z</time>
      </trkpt>
      <trkpt lat="47.15397" lon="9.3059">
        <ele>2357.1</ele>
        <time>2024-07-10T07:14:40Z</time>
      </trkpt>
      <trkpt lat="47.15396" lon="9.30589">
        <ele>2357</ele>
        <time>2024-07-10T07:14:41Z</time>
      </trkpt>
      <trkpt lat="47.15395" lon="9.30587">
        <ele>2356.3</ele>
        <time>2024-07-10T07:14:43Z</time>
      </trkpt>
      <trkpt lat="47.15395" lon="9.30586">
        <ele>2356</ele>
        <time>2024-07-10T07:14:44Z</time>
      </trkpt>
      <trkpt lat="47.15394" lon="9.30585">
        <ele>2355.8</ele>
        <time>2024-07-10T07:14:46Z</time>
      </trkpt>
      <trkpt lat="47.15393" lon="9.30582">
        <ele>2356.2</ele>
        <time>2024-07-10T07:14:48Z</time>
      </trkpt>
      <trkpt lat="47.15392" lon="9.30581">
        <ele>2356.4</ele>
        <time>2024-07-10T07:14:49Z</time>
      </trkpt>
      <trkpt lat="47.15391" lon="9.3058">
        <ele>2356.2</ele>
        <time>2024-07-10T07:14:50Z</time>
      </trkpt>
      <trkpt lat="47.1539" lon="9.30577">
        <ele>2356</ele>
        <time>2024-07-10T07:14:52Z</time>
      </trkpt>
      <trkpt lat="47.1539" lon="9.30576">
        <ele>2356.3</ele>
        <time>2024-07-10T07:14:53Z</time>
      </trkpt>
      <trkpt lat="47.15389" lon="9.30574">
        <ele>2356.7</ele>
        <time>2024-07-10T07:14:54Z</time>
      </trkpt>
      <trkpt lat="47.15388" lon="9.30572">
        <ele>2356.8</ele>
        <time>2024-07-10T07:14:56Z</time>
      </trkpt>
      <trkpt lat="47.15388" lon="9.3057">
        <ele>2356.9</ele>
        <time>2024-07-10T07:14:57Z</time>
      </trkpt>
      <trkpt lat="47.15387" lon="9.30569">
        <ele>2357.1</ele>
        <time>2024-07-10T07:14:58Z</time>
      </trkpt>
      <trkpt lat="47.15386" lon="9.30567">
        <ele>2357.2</ele>
        <time>2024-07-10T07:14:59Z</time>
      </trkpt>
      <trkpt lat="47.15386" lon="9.30566">
        <ele>2356.7</ele>
        <time>2024-07-10T07:15:00Z</time>
      </trkpt>
      <trkpt lat="47.15385" lon="9.30564">
        <ele>2356.8</ele>
        <time>2024-07-10T07:15:01Z</time>
      </trkpt>
      <trkpt lat="47.15384" lon="9.30562">
        <ele>2357</ele>
        <time>2024-07-10T07:15:02Z</time>
      </trkpt>
      <trkpt lat="47.15383" lon="9.3056">
        <ele>2357</ele>
        <time>2024-07-10T07:15:03Z</time>
      </trkpt>
      <trkpt lat="47.15383" lon="9.30558">
        <ele>2357</ele>
        <time>2024-07-10T07:15:04Z</time>
      </trkpt>
      <trkpt lat="47.15382" lon="9.30557">
        <ele>2357</ele>
        <time>2024-07-10T07:15:05Z</time>
      </trkpt>
      <trkpt lat="47.15381" lon="9.30555">
        <ele>2357</ele>
        <time>2024-07-10T07:15:06Z</time>
      </trkpt>
      <trkpt lat="47.1538" lon="9.30553">
        <ele>2357</ele>
        <time>2024-07-10T07:15:07Z</time>
      </trkpt>
      <trkpt lat="47.1538" lon="9.30552">
        <ele>2357.4</ele>
        <time>2024-07-10T07:15:08Z</time>
      </trkpt>
      <trkpt lat="47.15379" lon="9.3055">
        <ele>2357.4</ele>
        <time>2024-07-10T07:15:09Z</time>
      </trkpt>
      <trkpt lat="47.15378" lon="9.30549">
        <ele>2357.6</ele>
        <time>2024-07-10T07:15:11Z</time>
      </trkpt>
      <trkpt lat="47.15377" lon="9.30547">
        <ele>2357.6</ele>
        <time>2024-07-10T07:15:12Z</time>
      </trkpt>
      <trkpt lat="47.15376" lon="9.30545">
        <ele>2357.2</ele>
        <time>2024-07-10T07:15:14Z</time>
      </trkpt>
      <trkpt lat="47.15376" lon="9.30543">
        <ele>2357.1</ele>
        <time>2024-07-10T07:15:15Z</time>
      </trkpt>
      <trkpt lat="47.15375" lon="9.30541">
        <ele>2357.1</ele>
        <time>2024-07-10T07:15:17Z</time>
      </trkpt>
      <trkpt lat="47.15375" lon="9.3054">
        <ele>2357.1</ele>
        <time>2024-07-10T07:15:18Z</time>
      </trkpt>
      <trkpt lat="47.15374" lon="9.30538">
        <ele>2357.2</ele>
        <time>2024-07-10T07:15:19Z</time>
      </trkpt>
      <trkpt lat="47.15374" lon="9.30536">
        <ele>2357.3</ele>
        <time>2024-07-10T07:15:20Z</time>
      </trkpt>
      <trkpt lat="47.15374" lon="9.30534">
        <ele>2357</ele>
        <time>2024-07-10T07:15:21Z</time>
      </trkpt>
      <trkpt lat="47.15373" lon="9.30532">
        <ele>2357</ele>
        <time>2024-07-10T07:15:23Z</time>
      </trkpt>
      <trkpt lat="47.15372" lon="9.3053">
        <ele>2357.5</ele>
        <time>2024-07-10T07:15:24Z</time>
      </trkpt>
      <trkpt lat="47.15371" lon="9.30528">
        <ele>2357.9</ele>
        <time>2024-07-10T07:15:25Z</time>
      </trkpt>
      <trkpt lat="47.15371" lon="9.30527">
        <ele>2357.8</ele>
        <time>2024-07-10T07:15:26Z</time>
      </trkpt>
      <trkpt lat="47.1537" lon="9.30525">
        <ele>2357.8</ele>
        <time>2024-07-10T07:15:27Z</time>
      </trkpt>
      <trkpt lat="47.1537" lon="9.30524">
        <ele>2358</ele>
        <time>2024-07-10T07:15:28Z</time>
      </trkpt>
      <trkpt lat="47.1537" lon="9.30523">
        <ele>2358.2</ele>
        <time>2024-07-10T07:15:29Z</time>
      </trkpt>
      <trkpt lat="47.15369" lon="9.30522">
        <ele>2358.6</ele>
        <time>2024-07-10T07:15:30Z</time>
      </trkpt>
      <trkpt lat="47.15368" lon="9.30519">
        <ele>2358.3</ele>
        <time>2024-07-10T07:15:32Z</time>
      </trkpt>
      <trkpt lat="47.15368" lon="9.30517">
        <ele>2358</ele>
        <time>2024-07-10T07:15:33Z</time>
      </trkpt>
      <trkpt lat="47.15367" lon="9.30516">
        <ele>2358</ele>
        <time>2024-07-10T07:15:34Z</time>
      </trkpt>
      <trkpt lat="47.15366" lon="9.30514">
        <ele>2358.4</ele>
        <time>2024-07-10T07:15:35Z</time>
      </trkpt>
      <trkpt lat="47.15366" lon="9.30513">
        <ele>2358.8</ele>
        <time>2024-07-10T07:15:36Z</time>
      </trkpt>
      <trkpt lat="47.15365" lon="9.30511">
        <ele>2358.7</ele>
        <time>2024-07-10T07:15:37Z</time>
      </trkpt>
      <trkpt lat="47.15364" lon="9.3051">
        <ele>2358.2</ele>
        <time>2024-07-10T07:15:39Z</time>
      </trkpt>
      <trkpt lat="47.15363" lon="9.30509">
        <ele>2358.1</ele>
        <time>2024-07-10T07:15:40Z</time>
      </trkpt>
      <trkpt lat="47.15362" lon="9.30507">
        <ele>2358.3</ele>
        <time>2024-07-10T07:15:41Z</time>
      </trkpt>
      <trkpt lat="47.15362" lon="9.30506">
        <ele>2358.2</ele>
        <time>2024-07-10T07:15:42Z</time>
      </trkpt>
      <trkpt lat="47.15361" lon="9.30504">
        <ele>2358.1</ele>
        <time>2024-07-10T07:15:43Z</time>
      </trkpt>
      <trkpt lat="47.15361" lon="9.30502">
        <ele>2358.1</ele>
        <time>2024-07-10T07:15:45Z</time>
      </trkpt>
      <trkpt lat="47.1536" lon="9.30501">
        <ele>2357.9</ele>
        <time>2024-07-10T07:15:46Z</time>
      </trkpt>
      <trkpt lat="47.1536" lon="9.30499">
        <ele>2357.9</ele>
        <time>2024-07-10T07:15:47Z</time>
      </trkpt>
      <trkpt lat="47.15359" lon="9.30498">
        <ele>2357.8</ele>
        <time>2024-07-10T07:15:49Z</time>
      </trkpt>
      <trkpt lat="47.15357" lon="9.30498">
        <ele>2358</ele>
        <time>2024-07-10T07:15:51Z</time>
      </trkpt>
      <trkpt lat="47.15355" lon="9.30498">
        <ele>2358.4</ele>
        <time>2024-07-10T07:15:52Z</time>
      </trkpt>
      <trkpt lat="47.15355" lon="9.30497">
        <ele>2358.5</ele>
        <time>2024-07-10T07:15:53Z</time>
      </trkpt>
      <trkpt lat="47.15353" lon="9.30496">
        <ele>2358.7</ele>
        <time>2024-07-10T07:15:55Z</time>
      </trkpt>
      <trkpt lat="47.15352" lon="9.30495">
        <ele>2358.8</ele>
        <time>2024-07-10T07:15:56Z</time>
      </trkpt>
      <trkpt lat="47.15351" lon="9.30493">
        <ele>2358.7</ele>
        <time>2024-07-10T07:15:57Z</time>
      </trkpt>
      <trkpt lat="47.1535" lon="9.30492">
        <ele>2358.8</ele>
        <time>2024-07-10T07:15:58Z</time>
      </trkpt>
      <trkpt lat="47.15349" lon="9.30492">
        <ele>2358.9</ele>
        <time>2024-07-10T07:15:59Z</time>
      </trkpt>
      <trkpt lat="47.15348" lon="9.30491">
        <ele>2359</ele>
        <time>2024-07-10T07:16:00Z</time>
      </trkpt>
      <trkpt lat="47.15347" lon="9.30489">
        <ele>2359.3</ele>
        <time>2024-07-10T07:16:02Z</time>
      </trkpt>
      <trkpt lat="47.15346" lon="9.30488">
        <ele>2359.3</ele>
        <time>2024-07-10T07:16:03Z</time>
      </trkpt>
      <trkpt lat="47.15345" lon="9.30486">
        <ele>2359.4</ele>
        <time>2024-07-10T07:16:05Z</time>
      </trkpt>
      <trkpt lat="47.15345" lon="9.30484">
        <ele>2359.3</ele>
        <time>2024-07-10T07:16:06Z</time>
      </trkpt>
      <trkpt lat="47.15344" lon="9.30483">
        <ele>2359.3</ele>
        <time>2024-07-10T07:16:07Z</time>
      </trkpt>
      <trkpt lat="47.15343" lon="9.30482">
        <ele>2359.3</ele>
        <time>2024-07-10T07:16:08Z</time>
      </trkpt>
      <trkpt lat="47.15342" lon="9.30481">
        <ele>2359.3</ele>
        <time>2024-07-10T07:16:09Z</time>
      </trkpt>
      <trkpt lat="47.15341" lon="9.3048">
        <ele>2359.2</ele>
        <time>2024-07-10T07:16:10Z</time>
      </trkpt>
      <trkpt lat="47.1534" lon="9.30478">
        <ele>2358.8</ele>
        <time>2024-07-10T07:16:11Z</time>
      </trkpt>
      <trkpt lat="47.1534" lon="9.30477">
        <ele>2358.7</ele>
        <time>2024-07-10T07:16:12Z</time>
      </trkpt>
      <trkpt lat="47.15339" lon="9.30476">
        <ele>2358.5</ele>
        <time>2024-07-10T07:16:14Z</time>
      </trkpt>
      <trkpt lat="47.15338" lon="9.30474">
        <ele>2357.5</ele>
        <time>2024-07-10T07:16:16Z</time>
      </trkpt>
      <trkpt lat="47.15337" lon="9.30472">
        <ele>2357.4</ele>
        <time>2024-07-10T07:16:19Z</time>
      </trkpt>
      <trkpt lat="47.15338" lon="9.30473">
        <ele>2355.9</ele>
        <time>2024-07-10T07:16:26Z</time>
      </trkpt>
      <trkpt lat="47.15338" lon="9.30471">
        <ele>2354.7</ele>
        <time>2024-07-10T07:16:28Z</time>
      </trkpt>
      <trkpt lat="47.15337" lon="9.3047">
        <ele>2353.5</ele>
        <time>2024-07-10T07:16:30Z</time>
      </trkpt>
      <trkpt lat="47.15336" lon="9.30469">
        <ele>2353.1</ele>
        <time>2024-07-10T07:16:31Z</time>
      </trkpt>
      <trkpt lat="47.15335" lon="9.30468">
        <ele>2352.8</ele>
        <time>2024-07-10T07:16:32Z</time>
      </trkpt>
      <trkpt lat="47.15335" lon="9.30466">
        <ele>2352.3</ele>
        <time>2024-07-10T07:16:33Z</time>
      </trkpt>
      <trkpt lat="47.15334" lon="9.30465">
        <ele>2352.2</ele>
        <time>2024-07-10T07:16:34Z</time>
      </trkpt>
      <trkpt lat="47.15333" lon="9.30464">
        <ele>2352.1</ele>
        <time>2024-07-10T07:16:35Z</time>
      </trkpt>
      <trkpt lat="47.15332" lon="9.30464">
        <ele>2351.9</ele>
        <time>2024-07-10T07:16:36Z</time>
      </trkpt>
      <trkpt lat="47.15331" lon="9.30462">
        <ele>2351.8</ele>
        <time>2024-07-10T07:16:37Z</time>
      </trkpt>
      <trkpt lat="47.15331" lon="9.3046">
        <ele>2351.8</ele>
        <time>2024-07-10T07:16:38Z</time>
      </trkpt>
      <trkpt lat="47.15331" lon="9.30459">
        <ele>2352.1</ele>
        <time>2024-07-10T07:16:39Z</time>
      </trkpt>
      <trkpt lat="47.1533" lon="9.30457">
        <ele>2352.4</ele>
        <time>2024-07-10T07:16:41Z</time>
      </trkpt>
      <trkpt lat="47.15329" lon="9.30456">
        <ele>2352.7</ele>
        <time>2024-07-10T07:16:43Z</time>
      </trkpt>
      <trkpt lat="47.15328" lon="9.30455">
        <ele>2352.7</ele>
        <time>2024-07-10T07:16:48Z</time>
      </trkpt>
      <trkpt lat="47.15327" lon="9.30454">
        <ele>2352.6</ele>
        <time>2024-07-10T07:16:50Z</time>
      </trkpt>
      <trkpt lat="47.15326" lon="9.30453">
        <ele>2351.9</ele>
        <time>2024-07-10T07:16:52Z</time>
      </trkpt>
      <trkpt lat="47.15325" lon="9.30452">
        <ele>2351.8</ele>
        <time>2024-07-10T07:16:54Z</time>
      </trkpt>
      <trkpt lat="47.15325" lon="9.3045">
        <ele>2351.4</ele>
        <time>2024-07-10T07:16:55Z</time>
      </trkpt>
      <trkpt lat="47.15324" lon="9.30448">
        <ele>2351.3</ele>
        <time>2024-07-10T07:16:56Z</time>
      </trkpt>
      <trkpt lat="47.15323" lon="9.30446">
        <ele>2351.1</ele>
        <time>2024-07-10T07:16:57Z</time>
      </trkpt>
      <trkpt lat="47.15323" lon="9.30444">
        <ele>2350.8</ele>
        <time>2024-07-10T07:16:58Z</time>
      </trkpt>
      <trkpt lat="47.15322" lon="9.30443">
        <ele>2350.9</ele>
        <time>2024-07-10T07:16:59Z</time>
      </trkpt>
      <trkpt lat="47.15322" lon="9.30441">
        <ele>2350.7</ele>
        <time>2024-07-10T07:17:00Z</time>
      </trkpt>
      <trkpt lat="47.15321" lon="9.3044">
        <ele>2350.3</ele>
        <time>2024-07-10T07:17:01Z</time>
      </trkpt>
      <trkpt lat="47.15321" lon="9.30439">
        <ele>2350.1</ele>
        <time>2024-07-10T07:17:02Z</time>
      </trkpt>
      <trkpt lat="47.15319" lon="9.30438">
        <ele>2349.3</ele>
        <time>2024-07-10T07:17:04Z</time>
      </trkpt>
      <trkpt lat="47.15318" lon="9.30437">
        <ele>2348.9</ele>
        <time>2024-07-10T07:17:06Z</time>
      </trkpt>
      <trkpt lat="47.15318" lon="9.30436">
        <ele>2349</ele>
        <time>2024-07-10T07:17:08Z</time>
      </trkpt>
      <trkpt lat="47.15317" lon="9.30435">
        <ele>2349.3</ele>
        <time>2024-07-10T07:17:10Z</time>
      </trkpt>
      <trkpt lat="47.15316" lon="9.30434">
        <ele>2349.5</ele>
        <time>2024-07-10T07:17:13Z</time>
      </trkpt>
      <trkpt lat="47.15315" lon="9.30432">
        <ele>2349.2</ele>
        <time>2024-07-10T07:17:16Z</time>
      </trkpt>
      <trkpt lat="47.15315" lon="9.30431">
        <ele>2348.7</ele>
        <time>2024-07-10T07:17:18Z</time>
      </trkpt>
      <trkpt lat="47.15315" lon="9.30429">
        <ele>2347.9</ele>
        <time>2024-07-10T07:17:20Z</time>
      </trkpt>
      <trkpt lat="47.15316" lon="9.30427">
        <ele>2345.6</ele>
        <time>2024-07-10T07:17:23Z</time>
      </trkpt>
      <trkpt lat="47.15316" lon="9.30426">
        <ele>2345</ele>
        <time>2024-07-10T07:17:24Z</time>
      </trkpt>
      <trkpt lat="47.15316" lon="9.30424">
        <ele>2344.6</ele>
        <time>2024-07-10T07:17:25Z</time>
      </trkpt>
      <trkpt lat="47.15317" lon="9.30422">
        <ele>2344.3</ele>
        <time>2024-07-10T07:17:27Z</time>
      </trkpt>
      <trkpt lat="47.15317" lon="9.3042">
        <ele>2343.9</ele>
        <time>2024-07-10T07:17:29Z</time>
      </trkpt>
      <trkpt lat="47.15318" lon="9.30419">
        <ele>2343.6</ele>
        <time>2024-07-10T07:17:30Z</time>
      </trkpt>
      <trkpt lat="47.15319" lon="9.30417">
        <ele>2342.6</ele>
        <time>2024-07-10T07:17:32Z</time>
      </trkpt>
      <trkpt lat="47.1532" lon="9.30416">
        <ele>2342.3</ele>
        <time>2024-07-10T07:17:33Z</time>
      </trkpt>
      <trkpt lat="47.15321" lon="9.30415">
        <ele>2341.8</ele>
        <time>2024-07-10T07:17:34Z</time>
      </trkpt>
      <trkpt lat="47.15321" lon="9.30413">
        <ele>2341.6</ele>
        <time>2024-07-10T07:17:35Z</time>
      </trkpt>
      <trkpt lat="47.15322" lon="9.30412">
        <ele>2341.7</ele>
        <time>2024-07-10T07:17:36Z</time>
      </trkpt>
      <trkpt lat="47.15322" lon="9.3041">
        <ele>2341.6</ele>
        <time>2024-07-10T07:17:37Z</time>
      </trkpt>
      <trkpt lat="47.15324" lon="9.30409">
        <ele>2341.6</ele>
        <time>2024-07-10T07:17:39Z</time>
      </trkpt>
      <trkpt lat="47.15325" lon="9.30408">
        <ele>2341.6</ele>
        <time>2024-07-10T07:17:40Z</time>
      </trkpt>
      <trkpt lat="47.15326" lon="9.30406">
        <ele>2341.8</ele>
        <time>2024-07-10T07:17:41Z</time>
      </trkpt>
      <trkpt lat="47.15326" lon="9.30405">
        <ele>2341.6</ele>
        <time>2024-07-10T07:17:42Z</time>
      </trkpt>
      <trkpt lat="47.15326" lon="9.30403">
        <ele>2341.2</ele>
        <time>2024-07-10T07:17:43Z</time>
      </trkpt>
      <trkpt lat="47.15327" lon="9.304">
        <ele>2341.1</ele>
        <time>2024-07-10T07:17:45Z</time>
      </trkpt>
      <trkpt lat="47.15328" lon="9.30399">
        <ele>2340.6</ele>
        <time>2024-07-10T07:17:47Z</time>
      </trkpt>
      <trkpt lat="47.15328" lon="9.30396">
        <ele>2340</ele>
        <time>2024-07-10T07:17:49Z</time>
      </trkpt>
      <trkpt lat="47.15328" lon="9.30395">
        <ele>2339.6</ele>
        <time>2024-07-10T07:17:50Z</time>
      </trkpt>
      <trkpt lat="47.15328" lon="9.30393">
        <ele>2339.3</ele>
        <time>2024-07-10T07:17:51Z</time>
      </trkpt>
      <trkpt lat="47.15328" lon="9.30391">
        <ele>2338.3</ele>
        <time>2024-07-10T07:17:53Z</time>
      </trkpt>
      <trkpt lat="47.15328" lon="9.30389">
        <ele>2338.5</ele>
        <time>2024-07-10T07:17:55Z</time>
      </trkpt>
      <trkpt lat="47.15328" lon="9.30388">
        <ele>2338.2</ele>
        <time>2024-07-10T07:17:56Z</time>
      </trkpt>
      <trkpt lat="47.15329" lon="9.30387">
        <ele>2338</ele>
        <time>2024-07-10T07:17:58Z</time>
      </trkpt>
      <trkpt lat="47.15329" lon="9.30386">
        <ele>2338.3</ele>
        <time>2024-07-10T07:18:04Z</time>
      </trkpt>
      <trkpt lat="47.15327" lon="9.30385">
        <ele>2337.6</ele>
        <time>2024-07-10T07:18:56Z</time>
      </trkpt>
      <trkpt lat="47.15328" lon="9.30385">
        <ele>2337.5</ele>
        <time>2024-07-10T07:18:57Z</time>
      </trkpt>
      <trkpt lat="47.1533" lon="9.30385">
        <ele>2337.6</ele>
        <time>2024-07-10T07:18:58Z</time>
      </trkpt>
      <trkpt lat="47.15331" lon="9.30385">
        <ele>2337.6</ele>
        <time>2024-07-10T07:18:59Z</time>
      </trkpt>
      <trkpt lat="47.15332" lon="9.30386">
        <ele>2337.5</ele>
        <time>2024-07-10T07:19:01Z</time>
      </trkpt>
      <trkpt lat="47.15334" lon="9.30387">
        <ele>2337.8</ele>
        <time>2024-07-10T07:19:02Z</time>
      </trkpt>
      <trkpt lat="47.15335" lon="9.30386">
        <ele>2337.6</ele>
        <time>2024-07-10T07:19:03Z</time>
      </trkpt>
      <trkpt lat="47.15336" lon="9.30386">
        <ele>2337.6</ele>
        <time>2024-07-10T07:19:04Z</time>
      </trkpt>
      <trkpt lat="47.15338" lon="9.30385">
        <ele>2337.1</ele>
        <time>2024-07-10T07:19:06Z</time>
      </trkpt>
      <trkpt lat="47.15339" lon="9.30384">
        <ele>2336.6</ele>
        <time>2024-07-10T07:19:08Z</time>
      </trkpt>
      <trkpt lat="47.1534" lon="9.30383">
        <ele>2336</ele>
        <time>2024-07-10T07:19:10Z</time>
      </trkpt>
      <trkpt lat="47.15341" lon="9.30382">
        <ele>2335.1</ele>
        <time>2024-07-10T07:19:13Z</time>
      </trkpt>
      <trkpt lat="47.15343" lon="9.30381">
        <ele>2335.5</ele>
        <time>2024-07-10T07:19:15Z</time>
      </trkpt>
      <trkpt lat="47.15344" lon="9.3038">
        <ele>2336</ele>
        <time>2024-07-10T07:19:16Z</time>
      </trkpt>
      <trkpt lat="47.15346" lon="9.30379">
        <ele>2336.2</ele>
        <time>2024-07-10T07:19:18Z</time>
      </trkpt>
      <trkpt lat="47.15346" lon="9.30377">
        <ele>2335.8</ele>
        <time>2024-07-10T07:19:20Z</time>
      </trkpt>
      <trkpt lat="47.15347" lon="9.30375">
        <ele>2336</ele>
        <time>2024-07-10T07:19:22Z</time>
      </trkpt>
      <trkpt lat="47.15348" lon="9.30374">
        <ele>2335.6</ele>
        <time>2024-07-10T07:19:24Z</time>
      </trkpt>
      <trkpt lat="47.15349" lon="9.30373">
        <ele>2334.8</ele>
        <time>2024-07-10T07:19:26Z</time>
      </trkpt>
      <trkpt lat="47.1535" lon="9.30371">
        <ele>2334</ele>
        <time>2024-07-10T07:19:28Z</time>
      </trkpt>
      <trkpt lat="47.1535" lon="9.3037">
        <ele>2332.1</ele>
        <time>2024-07-10T07:19:31Z</time>
      </trkpt>
      <trkpt lat="47.15351" lon="9.3037">
        <ele>2330.2</ele>
        <time>2024-07-10T07:19:33Z</time>
      </trkpt>
      <trkpt lat="47.15352" lon="9.3037">
        <ele>2329.7</ele>
        <time>2024-07-10T07:19:34Z</time>
      </trkpt>
      <trkpt lat="47.15353" lon="9.3037">
        <ele>2328.6</ele>
        <time>2024-07-10T07:19:36Z</time>
      </trkpt>
      <trkpt lat="47.15354" lon="9.3037">
        <ele>2328.4</ele>
        <time>2024-07-10T07:19:38Z</time>
      </trkpt>
      <trkpt lat="47.15355" lon="9.30369">
        <ele>2327.6</ele>
        <time>2024-07-10T07:19:41Z</time>
      </trkpt>
      <trkpt lat="47.15356" lon="9.30368">
        <ele>2327.2</ele>
        <time>2024-07-10T07:19:44Z</time>
      </trkpt>
      <trkpt lat="47.15357" lon="9.30367">
        <ele>2326.9</ele>
        <time>2024-07-10T07:19:46Z</time>
      </trkpt>
      <trkpt lat="47.15357" lon="9.30366">
        <ele>2326.6</ele>
        <time>2024-07-10T07:19:48Z</time>
      </trkpt>
      <trkpt lat="47.15357" lon="9.30364">
        <ele>2326.3</ele>
        <time>2024-07-10T07:19:50Z</time>
      </trkpt>
      <trkpt lat="47.15356" lon="9.30362">
        <ele>2325.8</ele>
        <time>2024-07-10T07:19:53Z</time>
      </trkpt>
      <trkpt lat="47.15357" lon="9.30362">
        <ele>2325.4</ele>
        <time>2024-07-10T07:19:56Z</time>
      </trkpt>
      <trkpt lat="47.15358" lon="9.30363">
        <ele>2325.4</ele>
        <time>2024-07-10T07:19:57Z</time>
      </trkpt>
      <trkpt lat="47.15357" lon="9.30363">
        <ele>2324.7</ele>
        <time>2024-07-10T07:19:59Z</time>
      </trkpt>
      <trkpt lat="47.15356" lon="9.30362">
        <ele>2324.6</ele>
        <time>2024-07-10T07:20:00Z</time>
      </trkpt>
      <trkpt lat="47.15355" lon="9.30361">
        <ele>2324.6</ele>
        <time>2024-07-10T07:20:01Z</time>
      </trkpt>
      <trkpt lat="47.15355" lon="9.3036">
        <ele>2324.7</ele>
        <time>2024-07-10T07:20:02Z</time>
      </trkpt>
      <trkpt lat="47.15354" lon="9.30359">
        <ele>2324.7</ele>
        <time>2024-07-10T07:20:03Z</time>
      </trkpt>
      <trkpt lat="47.15353" lon="9.30358">
        <ele>2324.4</ele>
        <time>2024-07-10T07:20:04Z</time>
      </trkpt>
      <trkpt lat="47.15352" lon="9.30357">
        <ele>2324.3</ele>
        <time>2024-07-10T07:20:05Z</time>
      </trkpt>
      <trkpt lat="47.15351" lon="9.30356">
        <ele>2324.1</ele>
        <time>2024-07-10T07:20:07Z</time>
      </trkpt>
      <trkpt lat="47.1535" lon="9.30354">
        <ele>2323.8</ele>
        <time>2024-07-10T07:20:09Z</time>
      </trkpt>
      <trkpt lat="47.15349" lon="9.30353">
        <ele>2323.6</ele>
        <time>2024-07-10T07:20:11Z</time>
      </trkpt>
      <trkpt lat="47.15349" lon="9.30352">
        <ele>2323.4</ele>
        <time>2024-07-10T07:20:12Z</time>
      </trkpt>
      <trkpt lat="47.15348" lon="9.3035">
        <ele>2323.3</ele>
        <time>2024-07-10T07:20:13Z</time>
      </trkpt>
      <trkpt lat="47.15347" lon="9.30349">
        <ele>2322.8</ele>
        <time>2024-07-10T07:20:14Z</time>
      </trkpt>
      <trkpt lat="47.15346" lon="9.30348">
        <ele>2322.3</ele>
        <time>2024-07-10T07:20:15Z</time>
      </trkpt>
      <trkpt lat="47.15346" lon="9.30346">
        <ele>2320.9</ele>
        <time>2024-07-10T07:20:17Z</time>
      </trkpt>
      <trkpt lat="47.15345" lon="9.30345">
        <ele>2320.2</ele>
        <time>2024-07-10T07:20:19Z</time>
      </trkpt>
      <trkpt lat="47.15344" lon="9.30343">
        <ele>2320.2</ele>
        <time>2024-07-10T07:20:21Z</time>
      </trkpt>
      <trkpt lat="47.15343" lon="9.30341">
        <ele>2320.3</ele>
        <time>2024-07-10T07:20:23Z</time>
      </trkpt>
      <trkpt lat="47.15342" lon="9.3034">
        <ele>2320.1</ele>
        <time>2024-07-10T07:20:25Z</time>
      </trkpt>
      <trkpt lat="47.15341" lon="9.30339">
        <ele>2318.9</ele>
        <time>2024-07-10T07:20:27Z</time>
      </trkpt>
      <trkpt lat="47.15341" lon="9.30337">
        <ele>2318.5</ele>
        <time>2024-07-10T07:20:29Z</time>
      </trkpt>
      <trkpt lat="47.15339" lon="9.30335">
        <ele>2318</ele>
        <time>2024-07-10T07:20:31Z</time>
      </trkpt>
      <trkpt lat="47.15338" lon="9.30334">
        <ele>2317.7</ele>
        <time>2024-07-10T07:20:33Z</time>
      </trkpt>
      <trkpt lat="47.15336" lon="9.30333">
        <ele>2317.2</ele>
        <time>2024-07-10T07:20:35Z</time>
      </trkpt>
      <trkpt lat="47.15335" lon="9.30332">
        <ele>2315.8</ele>
        <time>2024-07-10T07:20:45Z</time>
      </trkpt>
      <trkpt lat="47.15336" lon="9.30331">
        <ele>2315.7</ele>
        <time>2024-07-10T07:20:53Z</time>
      </trkpt>
      <trkpt lat="47.15338" lon="9.30332">
        <ele>2314.9</ele>
        <time>2024-07-10T07:20:55Z</time>
      </trkpt>
      <trkpt lat="47.15339" lon="9.30332">
        <ele>2314.7</ele>
        <time>2024-07-10T07:20:56Z</time>
      </trkpt>
      <trkpt lat="47.1534" lon="9.30333">
        <ele>2314.5</ele>
        <time>2024-07-10T07:20:57Z</time>
      </trkpt>
      <trkpt lat="47.15341" lon="9.30333">
        <ele>2313.9</ele>
        <time>2024-07-10T07:20:58Z</time>
      </trkpt>
      <trkpt lat="47.15343" lon="9.30333">
        <ele>2313.5</ele>
        <time>2024-07-10T07:20:59Z</time>
      </trkpt>
      <trkpt lat="47.15344" lon="9.30333">
        <ele>2313.1</ele>
        <time>2024-07-10T07:21:00Z</time>
      </trkpt>
      <trkpt lat="47.15345" lon="9.30333">
        <ele>2312.6</ele>
        <time>2024-07-10T07:21:01Z</time>
      </trkpt>
      <trkpt lat="47.15347" lon="9.30333">
        <ele>2311.4</ele>
        <time>2024-07-10T07:21:02Z</time>
      </trkpt>
      <trkpt lat="47.15348" lon="9.30333">
        <ele>2310.5</ele>
        <time>2024-07-10T07:21:03Z</time>
      </trkpt>
      <trkpt lat="47.15349" lon="9.30333">
        <ele>2310.6</ele>
        <time>2024-07-10T07:21:04Z</time>
      </trkpt>
      <trkpt lat="47.15351" lon="9.30332">
        <ele>2310</ele>
        <time>2024-07-10T07:21:05Z</time>
      </trkpt>
      <trkpt lat="47.15352" lon="9.30332">
        <ele>2309.5</ele>
        <time>2024-07-10T07:21:06Z</time>
      </trkpt>
      <trkpt lat="47.15353" lon="9.30332">
        <ele>2308.7</ele>
        <time>2024-07-10T07:21:07Z</time>
      </trkpt>
      <trkpt lat="47.15354" lon="9.30331">
        <ele>2308.6</ele>
        <time>2024-07-10T07:21:09Z</time>
      </trkpt>
      <trkpt lat="47.15355" lon="9.30329">
        <ele>2308.7</ele>
        <time>2024-07-10T07:21:12Z</time>
      </trkpt>
      <trkpt lat="47.15356" lon="9.30328">
        <ele>2309</ele>
        <time>2024-07-10T07:21:13Z</time>
      </trkpt>
      <trkpt lat="47.15357" lon="9.30328">
        <ele>2308.4</ele>
        <time>2024-07-10T07:21:15Z</time>
      </trkpt>
      <trkpt lat="47.15359" lon="9.30327">
        <ele>2307.9</ele>
        <time>2024-07-10T07:21:17Z</time>
      </trkpt>
      <trkpt lat="47.15359" lon="9.30328">
        <ele>2305.3</ele>
        <time>2024-07-10T07:21:22Z</time>
      </trkpt>
      <trkpt lat="47.1536" lon="9.30329">
        <ele>2304.3</ele>
        <time>2024-07-10T07:21:25Z</time>
      </trkpt>
      <trkpt lat="47.15359" lon="9.30328">
        <ele>2302.5</ele>
        <time>2024-07-10T07:21:29Z</time>
      </trkpt>
      <trkpt lat="47.15357" lon="9.30326">
        <ele>2302</ele>
        <time>2024-07-10T07:21:30Z</time>
      </trkpt>
      <trkpt lat="47.15356" lon="9.30324">
        <ele>2301.4</ele>
        <time>2024-07-10T07:21:31Z</time>
      </trkpt>
      <trkpt lat="47.15354" lon="9.30323">
        <ele>2300.7</ele>
        <time>2024-07-10T07:21:32Z</time>
      </trkpt>
      <trkpt lat="47.15353" lon="9.30321">
        <ele>2299.8</ele>
        <time>2024-07-10T07:21:33Z</time>
      </trkpt>
      <trkpt lat="47.15352" lon="9.30319">
        <ele>2299.6</ele>
        <time>2024-07-10T07:21:34Z</time>
      </trkpt>
      <trkpt lat="47.15351" lon="9.30317">
        <ele>2299.4</ele>
        <time>2024-07-10T07:21:35Z</time>
      </trkpt>
      <trkpt lat="47.1535" lon="9.30316">
        <ele>2299.3</ele>
        <time>2024-07-10T07:21:36Z</time>
      </trkpt>
      <trkpt lat="47.15349" lon="9.30314">
        <ele>2299.1</ele>
        <time>2024-07-10T07:21:37Z</time>
      </trkpt>
      <trkpt lat="47.15348" lon="9.30314">
        <ele>2299</ele>
        <time>2024-07-10T07:21:38Z</time>
      </trkpt>
      <trkpt lat="47.15347" lon="9.30313">
        <ele>2299.1</ele>
        <time>2024-07-10T07:21:39Z</time>
      </trkpt>
      <trkpt lat="47.15346" lon="9.30313">
        <ele>2299</ele>
        <time>2024-07-10T07:21:40Z</time>
      </trkpt>
      <trkpt lat="47.15345" lon="9.30312">
        <ele>2298.8</ele>
        <time>2024-07-10T07:21:41Z</time>
      </trkpt>
      <trkpt lat="47.15344" lon="9.30311">
        <ele>2299.1</ele>
        <time>2024-07-10T07:21:42Z</time>
      </trkpt>
      <trkpt lat="47.15343" lon="9.3031">
        <ele>2299.5</ele>
        <time>2024-07-10T07:21:44Z</time>
      </trkpt>
      <trkpt lat="47.15343" lon="9.30308">
        <ele>2299.3</ele>
        <time>2024-07-10T07:21:46Z</time>
      </trkpt>
      <trkpt lat="47.15342" lon="9.30306">
        <ele>2299.4</ele>
        <time>2024-07-10T07:21:49Z</time>
      </trkpt>
      <trkpt lat="47.15341" lon="9.30305">
        <ele>2299.1</ele>
        <time>2024-07-10T07:21:53Z</time>
      </trkpt>
      <trkpt lat="47.1534" lon="9.30305">
        <ele>2299</ele>
        <time>2024-07-10T07:21:54Z</time>
      </trkpt>
      <trkpt lat="47.15339" lon="9.30304">
        <ele>2298.9</ele>
        <time>2024-07-10T07:21:55Z</time>
      </trkpt>
      <trkpt lat="47.15338" lon="9.30303">
        <ele>2298.9</ele>
        <time>2024-07-10T07:21:56Z</time>
      </trkpt>
      <trkpt lat="47.15338" lon="9.30302">
        <ele>2298.5</ele>
        <time>2024-07-10T07:21:57Z</time>
      </trkpt>
      <trkpt lat="47.15337" lon="9.30301">
        <ele>2297.5</ele>
        <time>2024-07-10T07:21:59Z</time>
      </trkpt>
      <trkpt lat="47.15336" lon="9.30301">
        <ele>2296.6</ele>
        <time>2024-07-10T07:22:02Z</time>
      </trkpt>
      <trkpt lat="47.15335" lon="9.30302">
        <ele>2296.6</ele>
        <time>2024-07-10T07:22:07Z</time>
      </trkpt>
      <trkpt lat="47.15334" lon="9.30302">
        <ele>2297.1</ele>
        <time>2024-07-10T07:22:16Z</time>
      </trkpt>
      <trkpt lat="47.15332" lon="9.30302">
        <ele>2297</ele>
        <time>2024-07-10T07:22:19Z</time>
      </trkpt>
      <trkpt lat="47.15331" lon="9.30302">
        <ele>2297.2</ele>
        <time>2024-07-10T07:22:21Z</time>
      </trkpt>
      <trkpt lat="47.15331" lon="9.30301">
        <ele>2296.9</ele>
        <time>2024-07-10T07:22:24Z</time>
      </trkpt>
      <trkpt lat="47.15331" lon="9.30298">
        <ele>2305.6</ele>
        <time>2024-07-10T07:22:29Z</time>
      </trkpt>
      <trkpt lat="47.15332" lon="9.303">
        <ele>2309.2</ele>
        <time>2024-07-10T07:22:40Z</time>
      </trkpt>
      <trkpt lat="47.15331" lon="9.30298">
        <ele>2308.7</ele>
        <time>2024-07-10T07:22:43Z</time>
      </trkpt>
      <trkpt lat="47.15331" lon="9.30296">
        <ele>2307</ele>
        <time>2024-07-10T07:22:44Z</time>
      </trkpt>
      <trkpt lat="47.15332" lon="9.30295">
        <ele>2305.2</ele>
        <time>2024-07-10T07:22:46Z</time>
      </trkpt>
      <trkpt lat="47.15335" lon="9.30301">
        <ele>2293.6</ele>
        <time>2024-07-10T07:22:53Z</time>
      </trkpt>
      <trkpt lat="47.15336" lon="9.30302">
        <ele>2292.9</ele>
        <time>2024-07-10T07:22:55Z</time>
      </trkpt>
      <trkpt lat="47.15337" lon="9.30302">
        <ele>2292.7</ele>
        <time>2024-07-10T07:22:56Z</time>
      </trkpt>
      <trkpt lat="47.15338" lon="9.30302">
        <ele>2292.2</ele>
        <time>2024-07-10T07:22:58Z</time>
      </trkpt>
      <trkpt lat="47.15339" lon="9.30302">
        <ele>2291.6</ele>
        <time>2024-07-10T07:22:59Z</time>
      </trkpt>
      <trkpt lat="47.1534" lon="9.30303">
        <ele>2290.9</ele>
        <time>2024-07-10T07:23:00Z</time>
      </trkpt>
      <trkpt lat="47.15341" lon="9.30303">
        <ele>2290.7</ele>
        <time>2024-07-10T07:23:01Z</time>
      </trkpt>
      <trkpt lat="47.15343" lon="9.30304">
        <ele>2290.2</ele>
        <time>2024-07-10T07:23:03Z</time>
      </trkpt>
      <trkpt lat="47.15344" lon="9.30304">
        <ele>2289.9</ele>
        <time>2024-07-10T07:23:04Z</time>
      </trkpt>
      <trkpt lat="47.15346" lon="9.30304">
        <ele>2289.4</ele>
        <time>2024-07-10T07:23:05Z</time>
      </trkpt>
      <trkpt lat="47.15348" lon="9.30305">
        <ele>2288.3</ele>
        <time>2024-07-10T07:23:07Z</time>
      </trkpt>
      <trkpt lat="47.15349" lon="9.30306">
        <ele>2287.9</ele>
        <time>2024-07-10T07:23:08Z</time>
      </trkpt>
      <trkpt lat="47.1535" lon="9.30305">
        <ele>2287.9</ele>
        <time>2024-07-10T07:23:09Z</time>
      </trkpt>
      <trkpt lat="47.15351" lon="9.30305">
        <ele>2287.4</ele>
        <time>2024-07-10T07:23:11Z</time>
      </trkpt>
      <trkpt lat="47.15353" lon="9.30305">
        <ele>2287.6</ele>
        <time>2024-07-10T07:23:13Z</time>
      </trkpt>
      <trkpt lat="47.15354" lon="9.30305">
        <ele>2287.5</ele>
        <time>2024-07-10T07:23:14Z</time>
      </trkpt>
      <trkpt lat="47.15355" lon="9.30306">
        <ele>2287.7</ele>
        <time>2024-07-10T07:23:15Z</time>
      </trkpt>
      <trkpt lat="47.15356" lon="9.30306">
        <ele>2289.2</ele>
        <time>2024-07-10T07:23:16Z</time>
      </trkpt>
      <trkpt lat="47.15357" lon="9.30306">
        <ele>2290.2</ele>
        <time>2024-07-10T07:23:17Z</time>
      </trkpt>
      <trkpt lat="47.15358" lon="9.30306">
        <ele>2290.4</ele>
        <time>2024-07-10T07:23:18Z</time>
      </trkpt>
      <trkpt lat="47.1536" lon="9.30307">
        <ele>2290</ele>
        <time>2024-07-10T07:23:20Z</time>
      </trkpt>
      <trkpt lat="47.15361" lon="9.30306">
        <ele>2290.3</ele>
        <time>2024-07-10T07:23:21Z</time>
      </trkpt>
      <trkpt lat="47.15362" lon="9.30307">
        <ele>2290.6</ele>
        <time>2024-07-10T07:23:23Z</time>
      </trkpt>
      <trkpt lat="47.15364" lon="9.30308">
        <ele>2290.9</ele>
        <time>2024-07-10T07:23:25Z</time>
      </trkpt>
      <trkpt lat="47.15365" lon="9.30309">
        <ele>2291</ele>
        <time>2024-07-10T07:23:26Z</time>
      </trkpt>
      <trkpt lat="47.15366" lon="9.30308">
        <ele>2291.2</ele>
        <time>2024-07-10T07:23:28Z</time>
      </trkpt>
      <trkpt lat="47.15367" lon="9.30308">
        <ele>2291.2</ele>
        <time>2024-07-10T07:23:29Z</time>
      </trkpt>
      <trkpt lat="47.15368" lon="9.30308">
        <ele>2291.1</ele>
        <time>2024-07-10T07:23:30Z</time>
      </trkpt>
      <trkpt lat="47.15369" lon="9.30307">
        <ele>2291.1</ele>
        <time>2024-07-10T07:23:31Z</time>
      </trkpt>
      <trkpt lat="47.1537" lon="9.30307">
        <ele>2290.9</ele>
        <time>2024-07-10T07:23:33Z</time>
      </trkpt>
      <trkpt lat="47.15371" lon="9.30307">
        <ele>2290.5</ele>
        <time>2024-07-10T07:23:34Z</time>
      </trkpt>
      <trkpt lat="47.15373" lon="9.30306">
        <ele>2290.2</ele>
        <time>2024-07-10T07:23:36Z</time>
      </trkpt>
      <trkpt lat="47.15374" lon="9.30307">
        <ele>2290.1</ele>
        <time>2024-07-10T07:23:38Z</time>
      </trkpt>
      <trkpt lat="47.15376" lon="9.30308">
        <ele>2289.4</ele>
        <time>2024-07-10T07:23:40Z</time>
      </trkpt>
      <trkpt lat="47.15377" lon="9.30308">
        <ele>2288.6</ele>
        <time>2024-07-10T07:23:41Z</time>
      </trkpt>
      <trkpt lat="47.15379" lon="9.30308">
        <ele>2287.6</ele>
        <time>2024-07-10T07:23:43Z</time>
      </trkpt>
      <trkpt lat="47.1538" lon="9.30308">
        <ele>2287.3</ele>
        <time>2024-07-10T07:23:44Z</time>
      </trkpt>
      <trkpt lat="47.15381" lon="9.30307">
        <ele>2287.4</ele>
        <time>2024-07-10T07:23:45Z</time>
      </trkpt>
      <trkpt lat="47.15382" lon="9.30307">
        <ele>2287.3</ele>
        <time>2024-07-10T07:23:46Z</time>
      </trkpt>
      <trkpt lat="47.15383" lon="9.30308">
        <ele>2287.9</ele>
        <time>2024-07-10T07:23:47Z</time>
      </trkpt>
      <trkpt lat="47.15385" lon="9.30308">
        <ele>2287.9</ele>
        <time>2024-07-10T07:23:49Z</time>
      </trkpt>
      <trkpt lat="47.15386" lon="9.30308">
        <ele>2287.2</ele>
        <time>2024-07-10T07:23:51Z</time>
      </trkpt>
      <trkpt lat="47.15387" lon="9.30308">
        <ele>2286.5</ele>
        <time>2024-07-10T07:23:52Z</time>
      </trkpt>
      <trkpt lat="47.15389" lon="9.30308">
        <ele>2286.3</ele>
        <time>2024-07-10T07:23:53Z</time>
      </trkpt>
      <trkpt lat="47.1539" lon="9.30309">
        <ele>2286.1</ele>
        <time>2024-07-10T07:23:54Z</time>
      </trkpt>
      <trkpt lat="47.15391" lon="9.30309">
        <ele>2284.7</ele>
        <time>2024-07-10T07:23:56Z</time>
      </trkpt>
      <trkpt lat="47.15392" lon="9.30308">
        <ele>2283.4</ele>
        <time>2024-07-10T07:23:58Z</time>
      </trkpt>
      <trkpt lat="47.15394" lon="9.30308">
        <ele>2282.4</ele>
        <time>2024-07-10T07:24:00Z</time>
      </trkpt>
      <trkpt lat="47.15395" lon="9.30308">
        <ele>2281.7</ele>
        <time>2024-07-10T07:24:02Z</time>
      </trkpt>
      <trkpt lat="47.15396" lon="9.30309">
        <ele>2281.3</ele>
        <time>2024-07-10T07:24:03Z</time>
      </trkpt>
      <trkpt lat="47.15397" lon="9.30309">
        <ele>2281.1</ele>
        <time>2024-07-10T07:24:04Z</time>
      </trkpt>
      <trkpt lat="47.15399" lon="9.30309">
        <ele>2280.5</ele>
        <time>2024-07-10T07:24:06Z</time>
      </trkpt>
      <trkpt lat="47.154" lon="9.30308">
        <ele>2280</ele>
        <time>2024-07-10T07:24:07Z</time>
      </trkpt>
      <trkpt lat="47.15402" lon="9.30308">
        <ele>2279.6</ele>
        <time>2024-07-10T07:24:08Z</time>
      </trkpt>
      <trkpt lat="47.15403" lon="9.30308">
        <ele>2279.4</ele>
        <time>2024-07-10T07:24:09Z</time>
      </trkpt>
      <trkpt lat="47.15405" lon="9.30307">
        <ele>2279.6</ele>
        <time>2024-07-10T07:24:10Z</time>
      </trkpt>
      <trkpt lat="47.15406" lon="9.30307">
        <ele>2279.6</ele>
        <time>2024-07-10T07:24:11Z</time>
      </trkpt>
      <trkpt lat="47.15408" lon="9.30307">
        <ele>2279.4</ele>
        <time>2024-07-10T07:24:13Z</time>
      </trkpt>
      <trkpt lat="47.1541" lon="9.30308">
        <ele>2278.8</ele>
        <time>2024-07-10T07:24:15Z</time>
      </trkpt>
      <trkpt lat="47.15411" lon="9.30309">
        <ele>2278.5</ele>
        <time>2024-07-10T07:24:16Z</time>
      </trkpt>
      <trkpt lat="47.15412" lon="9.30309">
        <ele>2278.4</ele>
        <time>2024-07-10T07:24:17Z</time>
      </trkpt>
      <trkpt lat="47.15413" lon="9.30309">
        <ele>2277.1</ele>
        <time>2024-07-10T07:24:19Z</time>
      </trkpt>
      <trkpt lat="47.15414" lon="9.30309">
        <ele>2276.5</ele>
        <time>2024-07-10T07:24:20Z</time>
      </trkpt>
      <trkpt lat="47.15416" lon="9.30309">
        <ele>2275.8</ele>
        <time>2024-07-10T07:24:21Z</time>
      </trkpt>
      <trkpt lat="47.15417" lon="9.30309">
        <ele>2275.9</ele>
        <time>2024-07-10T07:24:22Z</time>
      </trkpt>
      <trkpt lat="47.15418" lon="9.3031">
        <ele>2275.9</ele>
        <time>2024-07-10T07:24:23Z</time>
      </trkpt>
      <trkpt lat="47.1542" lon="9.3031">
        <ele>2275.2</ele>
        <time>2024-07-10T07:24:25Z</time>
      </trkpt>
      <trkpt lat="47.15421" lon="9.3031">
        <ele>2275.2</ele>
        <time>2024-07-10T07:24:26Z</time>
      </trkpt>
      <trkpt lat="47.15422" lon="9.3031">
        <ele>2274.5</ele>
        <time>2024-07-10T07:24:27Z</time>
      </trkpt>
      <trkpt lat="47.15424" lon="9.3031">
        <ele>2274.1</ele>
        <time>2024-07-10T07:24:28Z</time>
      </trkpt>
      <trkpt lat="47.15425" lon="9.30309">
        <ele>2274.1</ele>
        <time>2024-07-10T07:24:29Z</time>
      </trkpt>
      <trkpt lat="47.15425" lon="9.30308">
        <ele>2273.8</ele>
        <time>2024-07-10T07:24:30Z</time>
      </trkpt>
      <trkpt lat="47.15426" lon="9.30307">
        <ele>2273.6</ele>
        <time>2024-07-10T07:24:31Z</time>
      </trkpt>
      <trkpt lat="47.15427" lon="9.30307">
        <ele>2273.3</ele>
        <time>2024-07-10T07:24:32Z</time>
      </trkpt>
      <trkpt lat="47.15428" lon="9.30307">
        <ele>2273</ele>
        <time>2024-07-10T07:24:33Z</time>
      </trkpt>
      <trkpt lat="47.1543" lon="9.30307">
        <ele>2272.6</ele>
        <time>2024-07-10T07:24:34Z</time>
      </trkpt>
      <trkpt lat="47.15431" lon="9.30307">
        <ele>2272.2</ele>
        <time>2024-07-10T07:24:35Z</time>
      </trkpt>
      <trkpt lat="47.15432" lon="9.30307">
        <ele>2271.7</ele>
        <time>2024-07-10T07:24:36Z</time>
      </trkpt>
      <trkpt lat="47.15433" lon="9.30308">
        <ele>2270.2</ele>
        <time>2024-07-10T07:24:38Z</time>
      </trkpt>
      <trkpt lat="47.15434" lon="9.30309">
        <ele>2270.4</ele>
        <time>2024-07-10T07:24:39Z</time>
      </trkpt>
      <trkpt lat="47.15436" lon="9.30309">
        <ele>2270.1</ele>
        <time>2024-07-10T07:24:41Z</time>
      </trkpt>
      <trkpt lat="47.15437" lon="9.30309">
        <ele>2269.2</ele>
        <time>2024-07-10T07:24:43Z</time>
      </trkpt>
      <trkpt lat="47.15439" lon="9.30309">
        <ele>2268.9</ele>
        <time>2024-07-10T07:24:44Z</time>
      </trkpt>
      <trkpt lat="47.1544" lon="9.30309">
        <ele>2268.9</ele>
        <time>2024-07-10T07:24:45Z</time>
      </trkpt>
      <trkpt lat="47.15441" lon="9.30308">
        <ele>2269.6</ele>
        <time>2024-07-10T07:24:46Z</time>
      </trkpt>
      <trkpt lat="47.15442" lon="9.30307">
        <ele>2270.3</ele>
        <time>2024-07-10T07:24:47Z</time>
      </trkpt>
      <trkpt lat="47.15443" lon="9.30307">
        <ele>2270.2</ele>
        <time>2024-07-10T07:24:48Z</time>
      </trkpt>
      <trkpt lat="47.15444" lon="9.30306">
        <ele>2270</ele>
        <time>2024-07-10T07:24:49Z</time>
      </trkpt>
      <trkpt lat="47.15445" lon="9.30306">
        <ele>2270.4</ele>
        <time>2024-07-10T07:24:51Z</time>
      </trkpt>
      <trkpt lat="47.15447" lon="9.30307">
        <ele>2271</ele>
        <time>2024-07-10T07:24:53Z</time>
      </trkpt>
      <trkpt lat="47.15448" lon="9.30306">
        <ele>2272.1</ele>
        <time>2024-07-10T07:24:55Z</time>
      </trkpt>
      <trkpt lat="47.15449" lon="9.30306">
        <ele>2273.8</ele>
        <time>2024-07-10T07:25:01Z</time>
      </trkpt>
      <trkpt lat="47.15449" lon="9.30305">
        <ele>2273.9</ele>
        <time>2024-07-10T07:25:03Z</time>
      </trkpt>
      <trkpt lat="47.15449" lon="9.30303">
        <ele>2273.8</ele>
        <time>2024-07-10T07:25:04Z</time>
      </trkpt>
      <trkpt lat="47.15449" lon="9.30302">
        <ele>2273.7</ele>
        <time>2024-07-10T07:25:06Z</time>
      </trkpt>
      <trkpt lat="47.15447" lon="9.303">
        <ele>2273.8</ele>
        <time>2024-07-10T07:25:08Z</time>
      </trkpt>
      <trkpt lat="47.15447" lon="9.303">
        <ele>2273.5</ele>
        <time>2024-07-10T07:25:09Z</time>
      </trkpt>
      <trkpt lat="47.15445" lon="9.30299">
        <ele>2273.2</ele>
        <time>2024-07-10T07:25:11Z</time>
      </trkpt>
      <trkpt lat="47.15445" lon="9.30298">
        <ele>2273.3</ele>
        <time>2024-07-10T07:25:14Z</time>
      </trkpt>
      <trkpt lat="47.15447" lon="9.30298">
        <ele>2273.1</ele>
        <time>2024-07-10T07:25:17Z</time>
      </trkpt>
      <trkpt lat="47.15448" lon="9.30298">
        <ele>2272.8</ele>
        <time>2024-07-10T07:25:19Z</time>
      </trkpt>
      <trkpt lat="47.15449" lon="9.30298">
        <ele>2272.1</ele>
        <time>2024-07-10T07:25:21Z</time>
      </trkpt>
      <trkpt lat="47.15451" lon="9.30297">
        <ele>2271.5</ele>
        <time>2024-07-10T07:25:23Z</time>
      </trkpt>
      <trkpt lat="47.15453" lon="9.30296">
        <ele>2271</ele>
        <time>2024-07-10T07:25:25Z</time>
      </trkpt>
      <trkpt lat="47.15454" lon="9.30295">
        <ele>2270.7</ele>
        <time>2024-07-10T07:25:26Z</time>
      </trkpt>
      <trkpt lat="47.15455" lon="9.30294">
        <ele>2270.6</ele>
        <time>2024-07-10T07:25:28Z</time>
      </trkpt>
      <trkpt lat="47.15457" lon="9.30294">
        <ele>2269.6</ele>
        <time>2024-07-10T07:25:30Z</time>
      </trkpt>
      <trkpt lat="47.15458" lon="9.30294">
        <ele>2268.9</ele>
        <time>2024-07-10T07:25:31Z</time>
      </trkpt>
      <trkpt lat="47.15459" lon="9.30293">
        <ele>2268.8</ele>
        <time>2024-07-10T07:25:33Z</time>
      </trkpt>
      <trkpt lat="47.1546" lon="9.30292">
        <ele>2268.4</ele>
        <time>2024-07-10T07:25:38Z</time>
      </trkpt>
      <trkpt lat="47.15461" lon="9.30292">
        <ele>2267.8</ele>
        <time>2024-07-10T07:25:40Z</time>
      </trkpt>
      <trkpt lat="47.15462" lon="9.30291">
        <ele>2266.8</ele>
        <time>2024-07-10T07:25:42Z</time>
      </trkpt>
      <trkpt lat="47.15464" lon="9.3029">
        <ele>2265.4</ele>
        <time>2024-07-10T07:25:44Z</time>
      </trkpt>
      <trkpt lat="47.15465" lon="9.30289">
        <ele>2265</ele>
        <time>2024-07-10T07:25:46Z</time>
      </trkpt>
      <trkpt lat="47.15466" lon="9.30289">
        <ele>2264.1</ele>
        <time>2024-07-10T07:25:48Z</time>
      </trkpt>
      <trkpt lat="47.15467" lon="9.30288">
        <ele>2262.6</ele>
        <time>2024-07-10T07:25:50Z</time>
      </trkpt>
      <trkpt lat="47.15469" lon="9.30287">
        <ele>2260.8</ele>
        <time>2024-07-10T07:25:55Z</time>
      </trkpt>
      <trkpt lat="47.1547" lon="9.30287">
        <ele>2260</ele>
        <time>2024-07-10T07:25:57Z</time>
      </trkpt>
      <trkpt lat="47.15471" lon="9.30287">
        <ele>2259.9</ele>
        <time>2024-07-10T07:26:01Z</time>
      </trkpt>
      <trkpt lat="47.15473" lon="9.30287">
        <ele>2259.4</ele>
        <time>2024-07-10T07:26:03Z</time>
      </trkpt>
      <trkpt lat="47.15474" lon="9.30287">
        <ele>2259.3</ele>
        <time>2024-07-10T07:26:05Z</time>
      </trkpt>
      <trkpt lat="47.15475" lon="9.30286">
        <ele>2259.1</ele>
        <time>2024-07-10T07:26:07Z</time>
      </trkpt>
      <trkpt lat="47.15476" lon="9.30285">
        <ele>2258.7</ele>
        <time>2024-07-10T07:26:08Z</time>
      </trkpt>
      <trkpt lat="47.15477" lon="9.30285">
        <ele>2258.5</ele>
        <time>2024-07-10T07:26:09Z</time>
      </trkpt>
      <trkpt lat="47.15479" lon="9.30285">
        <ele>2257.9</ele>
        <time>2024-07-10T07:26:11Z</time>
      </trkpt>
      <trkpt lat="47.1548" lon="9.30285">
        <ele>2257.3</ele>
        <time>2024-07-10T07:26:13Z</time>
      </trkpt>
      <trkpt lat="47.15482" lon="9.30285">
        <ele>2256.9</ele>
        <time>2024-07-10T07:26:15Z</time>
      </trkpt>
      <trkpt lat="47.15484" lon="9.30285">
        <ele>2256.8</ele>
        <time>2024-07-10T07:26:16Z</time>
      </trkpt>
      <trkpt lat="47.15486" lon="9.30286">
        <ele>2256.2</ele>
        <time>2024-07-10T07:26:18Z</time>
      </trkpt>
      <trkpt lat="47.15487" lon="9.30285">
        <ele>2255.9</ele>
        <time>2024-07-10T07:26:19Z</time>
      </trkpt>
      <trkpt lat="47.15488" lon="9.30285">
        <ele>2255.4</ele>
        <time>2024-07-10T07:26:20Z</time>
      </trkpt>
      <trkpt lat="47.15489" lon="9.30284">
        <ele>2255.4</ele>
        <time>2024-07-10T07:26:22Z</time>
      </trkpt>
      <trkpt lat="47.1549" lon="9.30283">
        <ele>2254.4</ele>
        <time>2024-07-10T07:26:24Z</time>
      </trkpt>
      <trkpt lat="47.15491" lon="9.30282">
        <ele>2254.4</ele>
        <time>2024-07-10T07:26:28Z</time>
      </trkpt>
      <trkpt lat="47.15492" lon="9.30281">
        <ele>2254.2</ele>
        <time>2024-07-10T07:26:31Z</time>
      </trkpt>
      <trkpt lat="47.15493" lon="9.30279">
        <ele>2254.6</ele>
        <time>2024-07-10T07:26:33Z</time>
      </trkpt>
      <trkpt lat="47.15494" lon="9.30278">
        <ele>2254.6</ele>
        <time>2024-07-10T07:26:35Z</time>
      </trkpt>
      <trkpt lat="47.15495" lon="9.30276">
        <ele>2254.3</ele>
        <time>2024-07-10T07:26:37Z</time>
      </trkpt>
      <trkpt lat="47.15496" lon="9.30276">
        <ele>2254.3</ele>
        <time>2024-07-10T07:26:39Z</time>
      </trkpt>
      <trkpt lat="47.15497" lon="9.30275">
        <ele>2254.3</ele>
        <time>2024-07-10T07:26:40Z</time>
      </trkpt>
      <trkpt lat="47.15498" lon="9.30275">
        <ele>2253.9</ele>
        <time>2024-07-10T07:26:42Z</time>
      </trkpt>
      <trkpt lat="47.15499" lon="9.30275">
        <ele>2253.6</ele>
        <time>2024-07-10T07:26:48Z</time>
      </trkpt>
      <trkpt lat="47.155" lon="9.30274">
        <ele>2253.1</ele>
        <time>2024-07-10T07:26:51Z</time>
      </trkpt>
      <trkpt lat="47.15499" lon="9.30272">
        <ele>2252.9</ele>
        <time>2024-07-10T07:26:53Z</time>
      </trkpt>
      <trkpt lat="47.15498" lon="9.3027">
        <ele>2252.9</ele>
        <time>2024-07-10T07:26:55Z</time>
      </trkpt>
      <trkpt lat="47.15497" lon="9.3027">
        <ele>2252.7</ele>
        <time>2024-07-10T07:26:56Z</time>
      </trkpt>
      <trkpt lat="47.15496" lon="9.30269">
        <ele>2252.4</ele>
        <time>2024-07-10T07:26:57Z</time>
      </trkpt>
      <trkpt lat="47.15496" lon="9.30268">
        <ele>2252</ele>
        <time>2024-07-10T07:26:59Z</time>
      </trkpt>
      <trkpt lat="47.15494" lon="9.30267">
        <ele>2251.6</ele>
        <time>2024-07-10T07:27:01Z</time>
      </trkpt>
      <trkpt lat="47.15493" lon="9.30266">
        <ele>2251</ele>
        <time>2024-07-10T07:27:03Z</time>
      </trkpt>
      <trkpt lat="47.15492" lon="9.30265">
        <ele>2250.2</ele>
        <time>2024-07-10T07:27:05Z</time>
      </trkpt>
      <trkpt lat="47.15491" lon="9.30265">
        <ele>2249.9</ele>
        <time>2024-07-10T07:27:06Z</time>
      </trkpt>
      <trkpt lat="47.1549" lon="9.30265">
        <ele>2249.3</ele>
        <time>2024-07-10T07:27:07Z</time>
      </trkpt>
      <trkpt lat="47.15489" lon="9.30264">
        <ele>2248.9</ele>
        <time>2024-07-10T07:27:08Z</time>
      </trkpt>
      <trkpt lat="47.15488" lon="9.30264">
        <ele>2248.8</ele>
        <time>2024-07-10T07:27:09Z</time>
      </trkpt>
      <trkpt lat="47.15487" lon="9.30263">
        <ele>2248</ele>
        <time>2024-07-10T07:27:11Z</time>
      </trkpt>
      <trkpt lat="47.15485" lon="9.30263">
        <ele>2246.9</ele>
        <time>2024-07-10T07:27:14Z</time>
      </trkpt>
      <trkpt lat="47.15484" lon="9.30263">
        <ele>2247.1</ele>
        <time>2024-07-10T07:27:15Z</time>
      </trkpt>
      <trkpt lat="47.15483" lon="9.30262">
        <ele>2247</ele>
        <time>2024-07-10T07:27:16Z</time>
      </trkpt>
      <trkpt lat="47.15482" lon="9.30262">
        <ele>2246.7</ele>
        <time>2024-07-10T07:27:17Z</time>
      </trkpt>
      <trkpt lat="47.15481" lon="9.30261">
        <ele>2246.2</ele>
        <time>2024-07-10T07:27:18Z</time>
      </trkpt>
      <trkpt lat="47.1548" lon="9.3026">
        <ele>2245.6</ele>
        <time>2024-07-10T07:27:19Z</time>
      </trkpt>
      <trkpt lat="47.15479" lon="9.30259">
        <ele>2244.9</ele>
        <time>2024-07-10T07:27:20Z</time>
      </trkpt>
      <trkpt lat="47.15478" lon="9.30258">
        <ele>2244.5</ele>
        <time>2024-07-10T07:27:21Z</time>
      </trkpt>
      <trkpt lat="47.15477" lon="9.30258">
        <ele>2244.2</ele>
        <time>2024-07-10T07:27:22Z</time>
      </trkpt>
      <trkpt lat="47.15476" lon="9.30258">
        <ele>2243.9</ele>
        <time>2024-07-10T07:27:23Z</time>
      </trkpt>
      <trkpt lat="47.15475" lon="9.30257">
        <ele>2243.6</ele>
        <time>2024-07-10T07:27:24Z</time>
      </trkpt>
      <trkpt lat="47.15474" lon="9.30257">
        <ele>2243</ele>
        <time>2024-07-10T07:27:26Z</time>
      </trkpt>
      <trkpt lat="47.15472" lon="9.30256">
        <ele>2242.5</ele>
        <time>2024-07-10T07:27:28Z</time>
      </trkpt>
      <trkpt lat="47.15471" lon="9.30255">
        <ele>2242.2</ele>
        <time>2024-07-10T07:27:30Z</time>
      </trkpt>
      <trkpt lat="47.15471" lon="9.30254">
        <ele>2242</ele>
        <time>2024-07-10T07:27:31Z</time>
      </trkpt>
      <trkpt lat="47.1547" lon="9.30253">
        <ele>2241.7</ele>
        <time>2024-07-10T07:27:33Z</time>
      </trkpt>
      <trkpt lat="47.15468" lon="9.30252">
        <ele>2241.1</ele>
        <time>2024-07-10T07:27:35Z</time>
      </trkpt>
      <trkpt lat="47.15467" lon="9.30251">
        <ele>2240.9</ele>
        <time>2024-07-10T07:27:36Z</time>
      </trkpt>
      <trkpt lat="47.15466" lon="9.3025">
        <ele>2240.6</ele>
        <time>2024-07-10T07:27:37Z</time>
      </trkpt>
      <trkpt lat="47.15465" lon="9.30249">
        <ele>2240.4</ele>
        <time>2024-07-10T07:27:38Z</time>
      </trkpt>
      <trkpt lat="47.15464" lon="9.30248">
        <ele>2239.7</ele>
        <time>2024-07-10T07:27:39Z</time>
      </trkpt>
      <trkpt lat="47.15463" lon="9.30248">
        <ele>2239</ele>
        <time>2024-07-10T07:27:41Z</time>
      </trkpt>
      <trkpt lat="47.15462" lon="9.30246">
        <ele>2238.9</ele>
        <time>2024-07-10T07:27:43Z</time>
      </trkpt>
      <trkpt lat="47.15461" lon="9.30245">
        <ele>2237.9</ele>
        <time>2024-07-10T07:27:45Z</time>
      </trkpt>
      <trkpt lat="47.1546" lon="9.30245">
        <ele>2237.9</ele>
        <time>2024-07-10T07:27:46Z</time>
      </trkpt>
      <trkpt lat="47.15459" lon="9.30245">
        <ele>2237.8</ele>
        <time>2024-07-10T07:27:47Z</time>
      </trkpt>
      <trkpt lat="47.15457" lon="9.30244">
        <ele>2237.3</ele>
        <time>2024-07-10T07:27:49Z</time>
      </trkpt>
      <trkpt lat="47.15456" lon="9.30243">
        <ele>2237.2</ele>
        <time>2024-07-10T07:27:51Z</time>
      </trkpt>
      <trkpt lat="47.15455" lon="9.30242">
        <ele>2236.7</ele>
        <time>2024-07-10T07:27:54Z</time>
      </trkpt>
      <trkpt lat="47.15454" lon="9.30241">
        <ele>2236.2</ele>
        <time>2024-07-10T07:27:57Z</time>
      </trkpt>
      <trkpt lat="47.15453" lon="9.30241">
        <ele>2236.4</ele>
        <time>2024-07-10T07:27:59Z</time>
      </trkpt>
      <trkpt lat="47.15451" lon="9.3024">
        <ele>2236.1</ele>
        <time>2024-07-10T07:28:01Z</time>
      </trkpt>
      <trkpt lat="47.1545" lon="9.3024">
        <ele>2235.9</ele>
        <time>2024-07-10T07:28:02Z</time>
      </trkpt>
      <trkpt lat="47.15449" lon="9.30239">
        <ele>2235.5</ele>
        <time>2024-07-10T07:28:03Z</time>
      </trkpt>
      <trkpt lat="47.15448" lon="9.30238">
        <ele>2235.2</ele>
        <time>2024-07-10T07:28:04Z</time>
      </trkpt>
      <trkpt lat="47.15448" lon="9.30237">
        <ele>2234.9</ele>
        <time>2024-07-10T07:28:05Z</time>
      </trkpt>
      <trkpt lat="47.15446" lon="9.30236">
        <ele>2234.9</ele>
        <time>2024-07-10T07:28:06Z</time>
      </trkpt>
      <trkpt lat="47.15445" lon="9.30236">
        <ele>2234.9</ele>
        <time>2024-07-10T07:28:07Z</time>
      </trkpt>
      <trkpt lat="47.15444" lon="9.30235">
        <ele>2234.6</ele>
        <time>2024-07-10T07:28:08Z</time>
      </trkpt>
      <trkpt lat="47.15443" lon="9.30234">
        <ele>2234.4</ele>
        <time>2024-07-10T07:28:09Z</time>
      </trkpt>
      <trkpt lat="47.15442" lon="9.30233">
        <ele>2234.7</ele>
        <time>2024-07-10T07:28:10Z</time>
      </trkpt>
      <trkpt lat="47.15441" lon="9.30232">
        <ele>2234.4</ele>
        <time>2024-07-10T07:28:11Z</time>
      </trkpt>
      <trkpt lat="47.15439" lon="9.30231">
        <ele>2233.4</ele>
        <time>2024-07-10T07:28:13Z</time>
      </trkpt>
      <trkpt lat="47.15438" lon="9.3023">
        <ele>2232.9</ele>
        <time>2024-07-10T07:28:14Z</time>
      </trkpt>
      <trkpt lat="47.15437" lon="9.3023">
        <ele>2232.6</ele>
        <time>2024-07-10T07:28:15Z</time>
      </trkpt>
      <trkpt lat="47.15436" lon="9.30229">
        <ele>2232.2</ele>
        <time>2024-07-10T07:28:16Z</time>
      </trkpt>
      <trkpt lat="47.15435" lon="9.30229">
        <ele>2231.8</ele>
        <time>2024-07-10T07:28:17Z</time>
      </trkpt>
      <trkpt lat="47.15434" lon="9.30228">
        <ele>2231.4</ele>
        <time>2024-07-10T07:28:18Z</time>
      </trkpt>
      <trkpt lat="47.15433" lon="9.30227">
        <ele>2231.2</ele>
        <time>2024-07-10T07:28:19Z</time>
      </trkpt>
      <trkpt lat="47.15432" lon="9.30226">
        <ele>2231.2</ele>
        <time>2024-07-10T07:28:20Z</time>
      </trkpt>
      <trkpt lat="47.15431" lon="9.30226">
        <ele>2230.9</ele>
        <time>2024-07-10T07:28:21Z</time>
      </trkpt>
      <trkpt lat="47.15429" lon="9.30225">
        <ele>2230.5</ele>
        <time>2024-07-10T07:28:23Z</time>
      </trkpt>
      <trkpt lat="47.15428" lon="9.30225">
        <ele>2230.1</ele>
        <time>2024-07-10T07:28:25Z</time>
      </trkpt>
      <trkpt lat="47.15427" lon="9.30225">
        <ele>2229.9</ele>
        <time>2024-07-10T07:28:27Z</time>
      </trkpt>
      <trkpt lat="47.15426" lon="9.30224">
        <ele>2228.9</ele>
        <time>2024-07-10T07:28:31Z</time>
      </trkpt>
      <trkpt lat="47.15425" lon="9.30223">
        <ele>2228.6</ele>
        <time>2024-07-10T07:28:33Z</time>
      </trkpt>
      <trkpt lat="47.15424" lon="9.30222">
        <ele>2227.8</ele>
        <time>2024-07-10T07:28:35Z</time>
      </trkpt>
      <trkpt lat="47.15422" lon="9.30221">
        <ele>2227.1</ele>
        <time>2024-07-10T07:28:37Z</time>
      </trkpt>
      <trkpt lat="47.15421" lon="9.3022">
        <ele>2226.3</ele>
        <time>2024-07-10T07:28:39Z</time>
      </trkpt>
      <trkpt lat="47.1542" lon="9.30219">
        <ele>2226.1</ele>
        <time>2024-07-10T07:28:40Z</time>
      </trkpt>
      <trkpt lat="47.15419" lon="9.30218">
        <ele>2225.5</ele>
        <time>2024-07-10T07:28:42Z</time>
      </trkpt>
      <trkpt lat="47.15418" lon="9.30217">
        <ele>2225.4</ele>
        <time>2024-07-10T07:28:43Z</time>
      </trkpt>
      <trkpt lat="47.15418" lon="9.30216">
        <ele>2225</ele>
        <time>2024-07-10T07:28:44Z</time>
      </trkpt>
      <trkpt lat="47.15417" lon="9.30214">
        <ele>2224.6</ele>
        <time>2024-07-10T07:28:45Z</time>
      </trkpt>
      <trkpt lat="47.15416" lon="9.30213">
        <ele>2224.2</ele>
        <time>2024-07-10T07:28:46Z</time>
      </trkpt>
      <trkpt lat="47.15415" lon="9.30213">
        <ele>2223.7</ele>
        <time>2024-07-10T07:28:47Z</time>
      </trkpt>
      <trkpt lat="47.15414" lon="9.30212">
        <ele>2222.6</ele>
        <time>2024-07-10T07:28:49Z</time>
      </trkpt>
      <trkpt lat="47.15412" lon="9.30213">
        <ele>2221.9</ele>
        <time>2024-07-10T07:28:51Z</time>
      </trkpt>
      <trkpt lat="47.15411" lon="9.30211">
        <ele>2221.2</ele>
        <time>2024-07-10T07:28:53Z</time>
      </trkpt>
      <trkpt lat="47.15409" lon="9.3021">
        <ele>2220.6</ele>
        <time>2024-07-10T07:28:55Z</time>
      </trkpt>
      <trkpt lat="47.15408" lon="9.30209">
        <ele>2219.6</ele>
        <time>2024-07-10T07:28:57Z</time>
      </trkpt>
      <trkpt lat="47.15406" lon="9.30208">
        <ele>2219.1</ele>
        <time>2024-07-10T07:28:59Z</time>
      </trkpt>
      <trkpt lat="47.15405" lon="9.30208">
        <ele>2219.1</ele>
        <time>2024-07-10T07:29:01Z</time>
      </trkpt>
      <trkpt lat="47.15404" lon="9.30208">
        <ele>2218.5</ele>
        <time>2024-07-10T07:29:03Z</time>
      </trkpt>
      <trkpt lat="47.15403" lon="9.30207">
        <ele>2217.6</ele>
        <time>2024-07-10T07:29:06Z</time>
      </trkpt>
      <trkpt lat="47.15402" lon="9.30207">
        <ele>2218</ele>
        <time>2024-07-10T07:29:09Z</time>
      </trkpt>
      <trkpt lat="47.15402" lon="9.30205">
        <ele>2218.5</ele>
        <time>2024-07-10T07:29:13Z</time>
      </trkpt>
      <trkpt lat="47.15401" lon="9.30204">
        <ele>2218.5</ele>
        <time>2024-07-10T07:29:15Z</time>
      </trkpt>
      <trkpt lat="47.15399" lon="9.30203">
        <ele>2218.8</ele>
        <time>2024-07-10T07:29:17Z</time>
      </trkpt>
      <trkpt lat="47.15398" lon="9.30202">
        <ele>2219.3</ele>
        <time>2024-07-10T07:29:19Z</time>
      </trkpt>
      <trkpt lat="47.15396" lon="9.30202">
        <ele>2219.5</ele>
        <time>2024-07-10T07:29:20Z</time>
      </trkpt>
      <trkpt lat="47.15395" lon="9.30201">
        <ele>2219.3</ele>
        <time>2024-07-10T07:29:22Z</time>
      </trkpt>
      <trkpt lat="47.15394" lon="9.30202">
        <ele>2219.2</ele>
        <time>2024-07-10T07:29:24Z</time>
      </trkpt>
      <trkpt lat="47.15393" lon="9.30202">
        <ele>2219</ele>
        <time>2024-07-10T07:29:26Z</time>
      </trkpt>
      <trkpt lat="47.15392" lon="9.30202">
        <ele>2218.8</ele>
        <time>2024-07-10T07:29:27Z</time>
      </trkpt>
      <trkpt lat="47.15391" lon="9.30202">
        <ele>2218.5</ele>
        <time>2024-07-10T07:29:28Z</time>
      </trkpt>
      <trkpt lat="47.15389" lon="9.30202">
        <ele>2218.5</ele>
        <time>2024-07-10T07:29:29Z</time>
      </trkpt>
      <trkpt lat="47.15388" lon="9.30202">
        <ele>2218.6</ele>
        <time>2024-07-10T07:29:30Z</time>
      </trkpt>
      <trkpt lat="47.15387" lon="9.30202">
        <ele>2218.9</ele>
        <time>2024-07-10T07:29:32Z</time>
      </trkpt>
      <trkpt lat="47.15385" lon="9.30201">
        <ele>2219.4</ele>
        <time>2024-07-10T07:29:34Z</time>
      </trkpt>
      <trkpt lat="47.15384" lon="9.302">
        <ele>2218.9</ele>
        <time>2024-07-10T07:29:36Z</time>
      </trkpt>
      <trkpt lat="47.15383" lon="9.30199">
        <ele>2218.6</ele>
        <time>2024-07-10T07:29:37Z</time>
      </trkpt>
      <trkpt lat="47.15381" lon="9.30199">
        <ele>2218.1</ele>
        <time>2024-07-10T07:29:39Z</time>
      </trkpt>
      <trkpt lat="47.1538" lon="9.30198">
        <ele>2218.2</ele>
        <time>2024-07-10T07:29:40Z</time>
      </trkpt>
      <trkpt lat="47.15379" lon="9.30197">
        <ele>2218.5</ele>
        <time>2024-07-10T07:29:42Z</time>
      </trkpt>
      <trkpt lat="47.15378" lon="9.30197">
        <ele>2219.2</ele>
        <time>2024-07-10T07:29:43Z</time>
      </trkpt>
      <trkpt lat="47.15377" lon="9.30197">
        <ele>2219.3</ele>
        <time>2024-07-10T07:29:44Z</time>
      </trkpt>
      <trkpt lat="47.15375" lon="9.30196">
        <ele>2220.4</ele>
        <time>2024-07-10T07:29:46Z</time>
      </trkpt>
      <trkpt lat="47.15374" lon="9.30196">
        <ele>2220.5</ele>
        <time>2024-07-10T07:29:47Z</time>
      </trkpt>
      <trkpt lat="47.15373" lon="9.30196">
        <ele>2220.6</ele>
        <time>2024-07-10T07:29:48Z</time>
      </trkpt>
      <trkpt lat="47.15372" lon="9.30195">
        <ele>2220.5</ele>
        <time>2024-07-10T07:29:50Z</time>
      </trkpt>
      <trkpt lat="47.1537" lon="9.30194">
        <ele>2220.3</ele>
        <time>2024-07-10T07:29:52Z</time>
      </trkpt>
      <trkpt lat="47.15369" lon="9.30194">
        <ele>2220.2</ele>
        <time>2024-07-10T07:29:54Z</time>
      </trkpt>
      <trkpt lat="47.15367" lon="9.30195">
        <ele>2220.5</ele>
        <time>2024-07-10T07:29:56Z</time>
      </trkpt>
      <trkpt lat="47.15366" lon="9.30195">
        <ele>2221.3</ele>
        <time>2024-07-10T07:29:58Z</time>
      </trkpt>
      <trkpt lat="47.15365" lon="9.30195">
        <ele>2222.4</ele>
        <time>2024-07-10T07:30:00Z</time>
      </trkpt>
      <trkpt lat="47.15364" lon="9.30195">
        <ele>2222.8</ele>
        <time>2024-07-10T07:30:02Z</time>
      </trkpt>
      <trkpt lat="47.15363" lon="9.30194">
        <ele>2223.2</ele>
        <time>2024-07-10T07:30:04Z</time>
      </trkpt>
      <trkpt lat="47.15361" lon="9.30194">
        <ele>2223.5</ele>
        <time>2024-07-10T07:30:06Z</time>
      </trkpt>
      <trkpt lat="47.1536" lon="9.30195">
        <ele>2223.6</ele>
        <time>2024-07-10T07:30:08Z</time>
      </trkpt>
      <trkpt lat="47.15359" lon="9.30194">
        <ele>2223.8</ele>
        <time>2024-07-10T07:30:09Z</time>
      </trkpt>
      <trkpt lat="47.15358" lon="9.30194">
        <ele>2224.5</ele>
        <time>2024-07-10T07:30:12Z</time>
      </trkpt>
      <trkpt lat="47.15357" lon="9.30194">
        <ele>2224.7</ele>
        <time>2024-07-10T07:30:13Z</time>
      </trkpt>
      <trkpt lat="47.15356" lon="9.30194">
        <ele>2225.2</ele>
        <time>2024-07-10T07:30:16Z</time>
      </trkpt>
      <trkpt lat="47.15355" lon="9.30194">
        <ele>2225.9</ele>
        <time>2024-07-10T07:30:18Z</time>
      </trkpt>
      <trkpt lat="47.15354" lon="9.30194">
        <ele>2226.3</ele>
        <time>2024-07-10T07:30:20Z</time>
      </trkpt>
      <trkpt lat="47.15353" lon="9.30193">
        <ele>2227.1</ele>
        <time>2024-07-10T07:30:22Z</time>
      </trkpt>
      <trkpt lat="47.15352" lon="9.30193">
        <ele>2227.5</ele>
        <time>2024-07-10T07:30:24Z</time>
      </trkpt>
      <trkpt lat="47.1535" lon="9.30192">
        <ele>2227.7</ele>
        <time>2024-07-10T07:30:26Z</time>
      </trkpt>
      <trkpt lat="47.15349" lon="9.30192">
        <ele>2227.8</ele>
        <time>2024-07-10T07:30:29Z</time>
      </trkpt>
      <trkpt lat="47.15348" lon="9.30191">
        <ele>2228</ele>
        <time>2024-07-10T07:30:31Z</time>
      </trkpt>
      <trkpt lat="47.15347" lon="9.30191">
        <ele>2228.1</ele>
        <time>2024-07-10T07:30:32Z</time>
      </trkpt>
      <trkpt lat="47.15346" lon="9.30191">
        <ele>2228.4</ele>
        <time>2024-07-10T07:30:34Z</time>
      </trkpt>
      <trkpt lat="47.15345" lon="9.30191">
        <ele>2228.8</ele>
        <time>2024-07-10T07:30:36Z</time>
      </trkpt>
      <trkpt lat="47.15344" lon="9.30192">
        <ele>2229.7</ele>
        <time>2024-07-10T07:30:39Z</time>
      </trkpt>
      <trkpt lat="47.15343" lon="9.30192">
        <ele>2230</ele>
        <time>2024-07-10T07:30:41Z</time>
      </trkpt>
      <trkpt lat="47.15341" lon="9.30192">
        <ele>2230</ele>
        <time>2024-07-10T07:30:43Z</time>
      </trkpt>
      <trkpt lat="47.15341" lon="9.30192">
        <ele>2229.8</ele>
        <time>2024-07-10T07:30:46Z</time>
      </trkpt>
      <trkpt lat="47.1534" lon="9.30193">
        <ele>2230.2</ele>
        <time>2024-07-10T07:30:49Z</time>
      </trkpt>
      <trkpt lat="47.15339" lon="9.30195">
        <ele>2230.8</ele>
        <time>2024-07-10T07:30:54Z</time>
      </trkpt>
      <trkpt lat="47.15337" lon="9.30197">
        <ele>2230.8</ele>
        <time>2024-07-10T07:30:56Z</time>
      </trkpt>
      <trkpt lat="47.15337" lon="9.30198">
        <ele>2230.6</ele>
        <time>2024-07-10T07:30:57Z</time>
      </trkpt>
      <trkpt lat="47.15336" lon="9.30199">
        <ele>2230.4</ele>
        <time>2024-07-10T07:30:59Z</time>
      </trkpt>
      <trkpt lat="47.15336" lon="9.30201">
        <ele>2230.4</ele>
        <time>2024-07-10T07:31:02Z</time>
      </trkpt>
      <trkpt lat="47.15336" lon="9.30202">
        <ele>2230.9</ele>
        <time>2024-07-10T07:31:05Z</time>
      </trkpt>
      <trkpt lat="47.15336" lon="9.30203">
        <ele>2231.9</ele>
        <time>2024-07-10T07:31:08Z</time>
      </trkpt>
      <trkpt lat="47.15337" lon="9.30204">
        <ele>2232.6</ele>
        <time>2024-07-10T07:31:12Z</time>
      </trkpt>
      <trkpt lat="47.15337" lon="9.30206">
        <ele>2233.3</ele>
        <time>2024-07-10T07:31:15Z</time>
      </trkpt>
      <trkpt lat="47.15338" lon="9.30205">
        <ele>2234.4</ele>
        <time>2024-07-10T07:31:42Z</time>
      </trkpt>
      <trkpt lat="47.15336" lon="9.30204">
        <ele>2235.7</ele>
        <time>2024-07-10T07:31:59Z</time>
      </trkpt>
      <trkpt lat="47.15333" lon="9.30202">
        <ele>2237.2</ele>
        <time>2024-07-10T07:32:16Z</time>
      </trkpt>
      <trkpt lat="47.15334" lon="9.30204">
        <ele>2237.4</ele>
        <time>2024-07-10T07:32:36Z</time>
      </trkpt>
      <trkpt lat="47.15334" lon="9.30204">
        <ele>2236.5</ele>
        <time>2024-07-10T07:34:37Z</time>
      </trkpt>
      <trkpt lat="47.15338" lon="9.30206">
        <ele>2233.9</ele>
        <time>2024-07-10T07:34:58Z</time>
      </trkpt>
      <trkpt lat="47.15338" lon="9.30209">
        <ele>2233.1</ele>
        <time>2024-07-10T07:35:24Z</time>
      </trkpt>
      <trkpt lat="47.15334" lon="9.30205">
        <ele>2235.1</ele>
        <time>2024-07-10T07:35:56Z</time>
      </trkpt>
      <trkpt lat="47.15335" lon="9.30204">
        <ele>2235.6</ele>
        <time>2024-07-10T07:35:59Z</time>
      </trkpt>
      <trkpt lat="47.15335" lon="9.30203">
        <ele>2238.5</ele>
        <time>2024-07-10T07:36:31Z</time>
      </trkpt>
      <trkpt lat="47.15335" lon="9.30202">
        <ele>2235.2</ele>
        <time>2024-07-10T07:37:05Z</time>
      </trkpt>
      <trkpt lat="47.15334" lon="9.30202">
        <ele>2234.7</ele>
        <time>2024-07-10T07:37:07Z</time>
      </trkpt>
      <trkpt lat="47.15333" lon="9.30201">
        <ele>2234.4</ele>
        <time>2024-07-10T07:37:08Z</time>
      </trkpt>
      <trkpt lat="47.15332" lon="9.302">
        <ele>2233.7</ele>
        <time>2024-07-10T07:37:10Z</time>
      </trkpt>
      <trkpt lat="47.15331" lon="9.30199">
        <ele>2233.2</ele>
        <time>2024-07-10T07:37:13Z</time>
      </trkpt>
      <trkpt lat="47.15334" lon="9.30203">
        <ele>2232.3</ele>
        <time>2024-07-10T07:38:08Z</time>
      </trkpt>
      <trkpt lat="47.15335" lon="9.30203">
        <ele>2232.3</ele>
        <time>2024-07-10T07:38:09Z</time>
      </trkpt>
      <trkpt lat="47.15336" lon="9.30205">
        <ele>2232.3</ele>
        <time>2024-07-10T07:38:11Z</time>
      </trkpt>
      <trkpt lat="47.15337" lon="9.30207">
        <ele>2232.4</ele>
        <time>2024-07-10T07:38:13Z</time>
      </trkpt>
      <trkpt lat="47.15336" lon="9.30204">
        <ele>2235.5</ele>
        <time>2024-07-10T07:39:05Z</time>
      </trkpt>
      <trkpt lat="47.15338" lon="9.30205">
        <ele>2236.1</ele>
        <time>2024-07-10T07:39:07Z</time>
      </trkpt>
    </trkseg>
  </trk>
</gpx>